Wetterdaten: Montag, 10.11.2014
Datum Zeit Temp. Aussen +5cm Feuchte Auss Luftdruck Regen Sonnenschein Regendauer Solar Windben
10.11.2014 00:00 8,9 C 7,2 C 93 % 1008,7 hPa 0,0 l/m 0 min 2 min 0 W/m 10,5 km/h (2 Bft)
10.11.2014 00:02 8,9 C 7,2 C 93 % 1008,8 hPa 0,0 l/m 0 min 2 min 0 W/m 6,3 km/h (2 Bft)
10.11.2014 00:05 8,9 C 7,2 C 93 % 1008,7 hPa 0,0 l/m 0 min 2 min 0 W/m 8,4 km/h (2 Bft)
10.11.2014 00:06 8,9 C 7,2 C 93 % 1008,7 hPa 0,0 l/m 0 min 1 min 0 W/m 6,3 km/h (2 Bft)
10.11.2014 00:08 8,9 C 7,2 C 93 % 1008,7 hPa 0,0 l/m 0 min 2 min 0 W/m 8,4 km/h (2 Bft)
10.11.2014 00:10 8,9 C 7,2 C 93 % 1008,7 hPa 0,0 l/m 0 min 2 min 0 W/m 12,6 km/h (3 Bft)
10.11.2014 00:12 8,9 C 7,2 C 93 % 1008,6 hPa 0,0 l/m 0 min 2 min 0 W/m 8,4 km/h (2 Bft)
10.11.2014 00:14 8,9 C 7,2 C 93 % 1008,7 hPa 0,2 l/m 0 min 0 min 0 W/m 8,4 km/h (2 Bft)
10.11.2014 00:16 8,9 C 7,2 C 93 % 1008,7 hPa 0,0 l/m 0 min 0 min 0 W/m 10,5 km/h (2 Bft)
10.11.2014 00:18 8,9 C 7,2 C 93 % 1008,8 hPa 0,0 l/m 0 min 0 min 0 W/m 8,4 km/h (2 Bft)
10.11.2014 00:20 8,9 C 7,2 C 93 % 1008,8 hPa 0,0 l/m 0 min 0 min 0 W/m 10,5 km/h (2 Bft)
10.11.2014 00:22 8,9 C 7,2 C 93 % 1008,7 hPa 0,0 l/m 0 min 0 min 0 W/m 8,4 km/h (2 Bft)
10.11.2014 00:24 8,9 C 7,2 C 93 % 1008,7 hPa 0,0 l/m 0 min 2 min 0 W/m 8,4 km/h (2 Bft)
10.11.2014 00:26 8,9 C 7,2 C 93 % 1008,7 hPa 0,0 l/m 0 min 0 min 0 W/m 6,3 km/h (2 Bft)
10.11.2014 00:28 8,9 C 7,2 C 93 % 1008,8 hPa 0,0 l/m 0 min 0 min 0 W/m 4,2 km/h (1 Bft)
10.11.2014 00:30 8,8 C 7,2 C 93 % 1008,9 hPa 0,0 l/m 0 min 2 min 0 W/m 8,4 km/h (2 Bft)
10.11.2014 00:32 8,8 C 7,2 C 93 % 1009,0 hPa 0,0 l/m 0 min 0 min 0 W/m 6,3 km/h (2 Bft)
10.11.2014 00:34 8,8 C 7,2 C 93 % 1008,9 hPa 0,0 l/m 0 min 2 min 0 W/m 4,2 km/h (1 Bft)
10.11.2014 00:36 8,8 C 7,2 C 93 % 1008,8 hPa 0,0 l/m 0 min 2 min 0 W/m 10,5 km/h (2 Bft)
10.11.2014 00:38 8,8 C 7,2 C 93 % 1008,9 hPa 0,0 l/m 0 min 2 min 0 W/m 8,4 km/h (2 Bft)
10.11.2014 00:40 8,8 C 7,2 C 94 % 1009,0 hPa 0,0 l/m 0 min 0 min 0 W/m 6,3 km/h (2 Bft)
10.11.2014 00:42 8,8 C 7,2 C 94 % 1009,0 hPa 0,0 l/m 0 min 2 min 0 W/m 8,4 km/h (2 Bft)
10.11.2014 00:44 8,8 C 7,2 C 94 % 1009,0 hPa 0,0 l/m 0 min 2 min 0 W/m 10,5 km/h (2 Bft)
10.11.2014 00:46 8,8 C 7,2 C 94 % 1009,0 hPa 0,0 l/m 0 min 2 min 0 W/m 8,4 km/h (2 Bft)
10.11.2014 00:48 8,8 C 7,2 C 94 % 1009,1 hPa 0,0 l/m 0 min 2 min 0 W/m 6,3 km/h (2 Bft)
10.11.2014 00:50 8,8 C 7,2 C 94 % 1009,1 hPa 0,0 l/m 0 min 2 min 0 W/m 6,3 km/h (2 Bft)
10.11.2014 00:52 8,8 C 7,2 C 94 % 1008,9 hPa 0,0 l/m 0 min 2 min 0 W/m 8,4 km/h (2 Bft)
10.11.2014 00:54 8,8 C 7,2 C 94 % 1008,9 hPa 0,0 l/m 0 min 2 min 0 W/m 10,5 km/h (2 Bft)
10.11.2014 00:56 8,8 C 7,2 C 94 % 1009,0 hPa 0,2 l/m 0 min 2 min 0 W/m 8,4 km/h (2 Bft)
10.11.2014 00:58 8,8 C 7,2 C 94 % 1009,0 hPa 0,0 l/m 0 min 2 min 0 W/m 8,4 km/h (2 Bft)
10.11.2014 01:00 8,8 C 7,2 C 94 % 1008,9 hPa 0,0 l/m 0 min 2 min 0 W/m 8,4 km/h (2 Bft)
10.11.2014 01:02 8,8 C 7,2 C 94 % 1008,9 hPa 0,0 l/m 0 min 2 min 0 W/m 8,4 km/h (2 Bft)
10.11.2014 01:04 8,8 C 7,2 C 94 % 1009,0 hPa 0,0 l/m 0 min 2 min 0 W/m 6,3 km/h (2 Bft)
10.11.2014 01:06 8,8 C 7,2 C 94 % 1009,0 hPa 0,0 l/m 0 min 2 min 0 W/m 8,4 km/h (2 Bft)
10.11.2014 01:08 8,7 C 7,2 C 94 % 1009,0 hPa 0,0 l/m 0 min 2 min 0 W/m 14,6 km/h (3 Bft)
10.11.2014 01:10 8,8 C 7,2 C 94 % 1008,9 hPa 0,0 l/m 0 min 2 min 0 W/m 10,5 km/h (2 Bft)
10.11.2014 01:12 8,8 C 7,2 C 94 % 1009,0 hPa 0,0 l/m 0 min 2 min 0 W/m 12,6 km/h (3 Bft)
10.11.2014 01:14 8,8 C 7,2 C 94 % 1008,9 hPa 0,0 l/m 0 min 2 min 0 W/m 8,4 km/h (2 Bft)
10.11.2014 01:16 8,7 C 7,2 C 94 % 1008,9 hPa 0,0 l/m 0 min 2 min 0 W/m 8,4 km/h (2 Bft)
10.11.2014 01:18 8,7 C 7,2 C 95 % 1008,9 hPa 0,0 l/m 0 min 2 min 0 W/m 14,6 km/h (3 Bft)
10.11.2014 01:20 8,7 C 7,2 C 95 % 1008,9 hPa 0,2 l/m 0 min 2 min 0 W/m 10,5 km/h (2 Bft)
10.11.2014 01:22 8,7 C 7,2 C 95 % 1008,8 hPa 0,0 l/m 0 min 2 min 0 W/m 10,5 km/h (2 Bft)
10.11.2014 01:24 8,7 C 7,2 C 95 % 1008,8 hPa 0,0 l/m 0 min 2 min 0 W/m 10,5 km/h (2 Bft)
10.11.2014 01:26 8,7 C 7,2 C 95 % 1008,7 hPa 0,0 l/m 0 min 2 min 0 W/m 8,4 km/h (2 Bft)
10.11.2014 01:28 8,7 C 7,2 C 95 % 1008,7 hPa 0,0 l/m 0 min 2 min 0 W/m 8,4 km/h (2 Bft)
10.11.2014 01:30 8,7 C 7,2 C 95 % 1008,8 hPa 0,0 l/m 0 min 2 min 0 W/m 10,5 km/h (2 Bft)
10.11.2014 01:32 8,7 C 7,2 C 95 % 1008,7 hPa 0,0 l/m 0 min 2 min 0 W/m 8,4 km/h (2 Bft)
10.11.2014 01:34 8,7 C 7,2 C 95 % 1008,7 hPa 0,0 l/m 0 min 2 min 0 W/m 6,3 km/h (2 Bft)
10.11.2014 01:36 8,7 C 7,2 C 95 % 1008,8 hPa 0,0 l/m 0 min 2 min 0 W/m 8,4 km/h (2 Bft)
10.11.2014 01:38 8,7 C 7,2 C 95 % 1008,9 hPa 0,2 l/m 0 min 2 min 0 W/m 8,4 km/h (2 Bft)
10.11.2014 01:40 8,7 C 7,2 C 95 % 1008,8 hPa 0,0 l/m 0 min 2 min 0 W/m 6,3 km/h (2 Bft)
10.11.2014 01:42 8,7 C 7,2 C 95 % 1008,9 hPa 0,0 l/m 0 min 2 min 0 W/m 8,4 km/h (2 Bft)
10.11.2014 01:44 8,7 C 7,2 C 95 % 1008,8 hPa 0,0 l/m 0 min 2 min 0 W/m 8,4 km/h (2 Bft)
10.11.2014 01:46 8,7 C 7,2 C 95 % 1008,9 hPa 0,0 l/m 0 min 2 min 0 W/m 12,6 km/h (3 Bft)
10.11.2014 01:48 8,7 C 7,2 C 95 % 1008,8 hPa 0,0 l/m 0 min 2 min 0 W/m 8,4 km/h (2 Bft)
10.11.2014 01:50 8,7 C 7,2 C 95 % 1008,8 hPa 0,0 l/m 0 min 2 min 0 W/m 12,6 km/h (3 Bft)
10.11.2014 01:52 8,7 C 7,2 C 95 % 1008,9 hPa 0,0 l/m 0 min 2 min 0 W/m 10,5 km/h (2 Bft)
10.11.2014 01:54 8,7 C 7,2 C 95 % 1008,9 hPa 0,0 l/m 0 min 0 min 0 W/m 10,5 km/h (2 Bft)
10.11.2014 01:56 8,7 C 7,2 C 95 % 1008,8 hPa 0,0 l/m 0 min 2 min 0 W/m 8,4 km/h (2 Bft)
10.11.2014 01:58 8,7 C 7,2 C 96 % 1008,8 hPa 0,0 l/m 0 min 0 min 0 W/m 8,4 km/h (2 Bft)
10.11.2014 02:00 8,7 C 7,2 C 96 % 1008,8 hPa 0,0 l/m 0 min 0 min 0 W/m 10,5 km/h (2 Bft)
10.11.2014 02:02 8,7 C 7,2 C 96 % 1008,7 hPa 0,0 l/m 0 min 0 min 0 W/m 14,6 km/h (3 Bft)
10.11.2014 02:04 8,7 C 7,2 C 96 % 1008,8 hPa 0,0 l/m 0 min 0 min 0 W/m 10,5 km/h (2 Bft)
10.11.2014 02:06 8,7 C 7,2 C 96 % 1008,9 hPa 0,0 l/m 0 min 2 min 0 W/m 10,5 km/h (2 Bft)
10.11.2014 02:08 8,7 C 7,2 C 96 % 1008,9 hPa 0,0 l/m 0 min 0 min 0 W/m 10,5 km/h (2 Bft)
10.11.2014 02:10 8,7 C 7,2 C 96 % 1008,9 hPa 0,0 l/m 0 min 0 min 0 W/m 10,5 km/h (2 Bft)
10.11.2014 02:12 8,7 C 7,2 C 96 % 1008,9 hPa 0,0 l/m 0 min 0 min 0 W/m 10,5 km/h (2 Bft)
10.11.2014 02:14 8,7 C 7,2 C 96 % 1009,1 hPa 0,0 l/m 0 min 0 min 0 W/m 12,6 km/h (3 Bft)
10.11.2014 02:16 8,7 C 7,2 C 96 % 1009,1 hPa 0,0 l/m 0 min 0 min 0 W/m 8,4 km/h (2 Bft)
10.11.2014 02:18 8,7 C 7,2 C 96 % 1009,0 hPa 0,0 l/m 0 min 2 min 0 W/m 6,3 km/h (2 Bft)
10.11.2014 02:20 8,7 C 7,2 C 96 % 1009,0 hPa 0,0 l/m 0 min 2 min 0 W/m 8,4 km/h (2 Bft)
10.11.2014 02:22 8,7 C 7,2 C 96 % 1009,0 hPa 0,0 l/m 0 min 2 min 0 W/m 8,4 km/h (2 Bft)
10.11.2014 02:24 8,7 C 7,2 C 96 % 1009,0 hPa 0,0 l/m 0 min 0 min 0 W/m 6,3 km/h (2 Bft)
10.11.2014 02:26 8,7 C 7,2 C 96 % 1009,0 hPa 0,0 l/m 0 min 0 min 0 W/m 10,5 km/h (2 Bft)
10.11.2014 02:28 8,7 C 7,2 C 96 % 1009,0 hPa 0,0 l/m 0 min 0 min 0 W/m 8,4 km/h (2 Bft)
10.11.2014 02:30 8,7 C 7,2 C 96 % 1009,0 hPa 0,0 l/m 0 min 0 min 0 W/m 8,4 km/h (2 Bft)
10.11.2014 02:32 8,7 C 7,2 C 96 % 1009,0 hPa 0,2 l/m 0 min 0 min 0 W/m 10,5 km/h (2 Bft)
10.11.2014 02:34 8,7 C 7,2 C 96 % 1009,0 hPa 0,0 l/m 0 min 0 min 0 W/m 8,4 km/h (2 Bft)
10.11.2014 02:36 8,7 C 7,2 C 96 % 1009,0 hPa 0,0 l/m 0 min 0 min 0 W/m 8,4 km/h (2 Bft)
10.11.2014 02:38 8,7 C 7,2 C 96 % 1009,1 hPa 0,0 l/m 0 min 0 min 0 W/m 8,4 km/h (2 Bft)
10.11.2014 02:40 8,6 C 7,2 C 96 % 1009,1 hPa 0,0 l/m 0 min 0 min 0 W/m 8,4 km/h (2 Bft)
10.11.2014 02:42 8,7 C 7,2 C 96 % 1009,0 hPa 0,0 l/m 0 min 0 min 0 W/m 10,5 km/h (2 Bft)
10.11.2014 02:44 8,7 C 7,2 C 96 % 1009,1 hPa 0,0 l/m 0 min 0 min 0 W/m 6,3 km/h (2 Bft)
10.11.2014 02:46 8,7 C 7,2 C 96 % 1009,1 hPa 0,0 l/m 0 min 0 min 0 W/m 10,5 km/h (2 Bft)
10.11.2014 02:48 8,7 C 7,2 C 96 % 1009,1 hPa 0,0 l/m 0 min 2 min 0 W/m 10,5 km/h (2 Bft)
10.11.2014 02:50 8,7 C 7,2 C 96 % 1009,1 hPa 0,0 l/m 0 min 0 min 0 W/m 14,6 km/h (3 Bft)
10.11.2014 02:52 8,7 C 7,2 C 96 % 1009,1 hPa 0,0 l/m 0 min 0 min 0 W/m 12,6 km/h (3 Bft)
10.11.2014 02:54 8,7 C 7,2 C 96 % 1008,9 hPa 0,0 l/m 0 min 2 min 0 W/m 8,4 km/h (2 Bft)
10.11.2014 02:56 8,7 C 7,2 C 96 % 1008,8 hPa 0,0 l/m 0 min 2 min 0 W/m 16,7 km/h (3 Bft)
10.11.2014 03:00 8,7 C 7,2 C 96 % 1008,8 hPa 0,0 l/m 0 min 2 min 0 W/m 10,5 km/h (2 Bft)
10.11.2014 03:01 8,7 C 7,2 C 96 % 1008,8 hPa 0,0 l/m 0 min 1 min 0 W/m 8,4 km/h (2 Bft)
10.11.2014 03:02 8,7 C 7,2 C 96 % 1008,8 hPa 0,0 l/m 0 min 1 min 0 W/m 6,3 km/h (2 Bft)
10.11.2014 03:03 8,7 C 7,2 C 96 % 1008,7 hPa 0,0 l/m 0 min 0 min 0 W/m 6,3 km/h (2 Bft)
10.11.2014 03:06 8,6 C 7,2 C 96 % 1008,7 hPa 0,0 l/m 0 min 0 min 0 W/m 8,4 km/h (2 Bft)
10.11.2014 03:07 8,6 C 7,2 C 96 % 1008,8 hPa 0,0 l/m 0 min 0 min 0 W/m 6,3 km/h (2 Bft)
10.11.2014 03:08 8,6 C 7,2 C 96 % 1008,8 hPa 0,0 l/m 0 min 0 min 0 W/m 0,0 km/h (0 Bft)
10.11.2014 03:09 8,6 C 7,2 C 96 % 1008,8 hPa 0,0 l/m 0 min 0 min 0 W/m 6,3 km/h (2 Bft)
10.11.2014 03:10 8,6 C 7,2 C 96 % 1008,8 hPa 0,0 l/m 0 min 0 min 0 W/m 6,3 km/h (2 Bft)
10.11.2014 03:11 8,6 C 7,2 C 96 % 1008,8 hPa 0,0 l/m 0 min 0 min 0 W/m 10,5 km/h (2 Bft)
10.11.2014 03:12 8,6 C 7,2 C 97 % 1008,8 hPa 0,0 l/m 0 min 0 min 0 W/m 12,6 km/h (3 Bft)
10.11.2014 03:13 8,6 C 7,2 C 97 % 1008,9 hPa 0,0 l/m 0 min 0 min 0 W/m 8,4 km/h (2 Bft)
10.11.2014 03:14 8,6 C 7,2 C 97 % 1008,8 hPa 0,0 l/m 0 min 0 min 0 W/m 10,5 km/h (2 Bft)
10.11.2014 03:15 8,6 C 7,2 C 97 % 1008,8 hPa 0,0 l/m 0 min 0 min 0 W/m 8,4 km/h (2 Bft)
10.11.2014 03:16 8,6 C 7,2 C 97 % 1008,8 hPa 0,0 l/m 0 min 0 min 0 W/m 10,5 km/h (2 Bft)
10.11.2014 03:17 8,6 C 7,2 C 97 % 1008,7 hPa 0,0 l/m 0 min 0 min 0 W/m 8,4 km/h (2 Bft)
10.11.2014 03:18 8,6 C 7,2 C 97 % 1008,8 hPa 0,0 l/m 0 min 0 min 0 W/m 6,3 km/h (2 Bft)
10.11.2014 03:19 8,6 C 7,2 C 97 % 1008,9 hPa 0,0 l/m 0 min 0 min 0 W/m 8,4 km/h (2 Bft)
10.11.2014 03:20 8,6 C 7,2 C 97 % 1008,8 hPa 0,0 l/m 0 min 0 min 0 W/m 8,4 km/h (2 Bft)
10.11.2014 03:21 8,6 C 7,2 C 97 % 1008,9 hPa 0,0 l/m 0 min 0 min 0 W/m 10,5 km/h (2 Bft)
10.11.2014 03:22 8,6 C 7,2 C 97 % 1008,8 hPa 0,0 l/m 0 min 0 min 0 W/m 8,4 km/h (2 Bft)
10.11.2014 03:23 8,6 C 7,2 C 97 % 1008,8 hPa 0,0 l/m 0 min 0 min 0 W/m 8,4 km/h (2 Bft)
10.11.2014 03:24 8,6 C 7,2 C 97 % 1008,8 hPa 0,0 l/m 0 min 0 min 0 W/m 10,5 km/h (2 Bft)
10.11.2014 03:25 8,6 C 7,2 C 97 % 1008,8 hPa 0,0 l/m 0 min 0 min 0 W/m 8,4 km/h (2 Bft)
10.11.2014 03:26 8,6 C 7,2 C 97 % 1008,8 hPa 0,0 l/m 0 min 0 min 0 W/m 8,4 km/h (2 Bft)
10.11.2014 03:27 8,6 C 7,2 C 97 % 1008,8 hPa 0,0 l/m 0 min 0 min 0 W/m 8,4 km/h (2 Bft)
10.11.2014 03:28 8,6 C 7,2 C 97 % 1008,8 hPa 0,0 l/m 0 min 0 min 0 W/m 10,5 km/h (2 Bft)
10.11.2014 03:29 8,6 C 7,2 C 97 % 1008,8 hPa 0,0 l/m 0 min 0 min 0 W/m 10,5 km/h (2 Bft)
10.11.2014 03:30 8,6 C 7,2 C 97 % 1008,8 hPa 0,0 l/m 0 min 0 min 0 W/m 8,4 km/h (2 Bft)
10.11.2014 03:31 8,6 C 7,2 C 97 % 1008,8 hPa 0,0 l/m 0 min 0 min 0 W/m 10,5 km/h (2 Bft)
10.11.2014 03:32 8,6 C 7,2 C 97 % 1008,8 hPa 0,0 l/m 0 min 0 min 0 W/m 12,6 km/h (3 Bft)
10.11.2014 03:33 8,6 C 7,2 C 97 % 1008,8 hPa 0,0 l/m 0 min 1 min 0 W/m 8,4 km/h (2 Bft)
10.11.2014 03:34 8,6 C 7,2 C 97 % 1008,9 hPa 0,0 l/m 0 min 1 min 0 W/m 10,5 km/h (2 Bft)
10.11.2014 03:35 8,6 C 7,2 C 97 % 1008,8 hPa 0,0 l/m 0 min 0 min 0 W/m 10,5 km/h (2 Bft)
10.11.2014 03:36 8,6 C 7,2 C 97 % 1008,9 hPa 0,0 l/m 0 min 1 min 0 W/m 8,4 km/h (2 Bft)
10.11.2014 03:37 8,6 C 7,2 C 97 % 1008,8 hPa 0,0 l/m 0 min 1 min 0 W/m 12,6 km/h (3 Bft)
10.11.2014 03:38 8,6 C 7,2 C 97 % 1009,0 hPa 0,0 l/m 0 min 1 min 0 W/m 12,6 km/h (3 Bft)
10.11.2014 03:39 8,6 C 7,2 C 97 % 1009,0 hPa 0,0 l/m 0 min 1 min 0 W/m 8,4 km/h (2 Bft)
10.11.2014 03:40 8,6 C 7,2 C 97 % 1009,0 hPa 0,0 l/m 0 min 1 min 0 W/m 12,6 km/h (3 Bft)
10.11.2014 03:41 8,6 C 7,2 C 97 % 1009,0 hPa 0,0 l/m 0 min 1 min 0 W/m 6,3 km/h (2 Bft)
10.11.2014 03:42 8,6 C 7,2 C 97 % 1009,0 hPa 0,0 l/m 0 min 1 min 0 W/m 10,5 km/h (2 Bft)
10.11.2014 03:43 8,6 C 7,2 C 97 % 1009,1 hPa 0,0 l/m 0 min 1 min 0 W/m 8,4 km/h (2 Bft)
10.11.2014 03:44 8,6 C 7,2 C 97 % 1009,0 hPa 0,0 l/m 0 min 1 min 0 W/m 10,5 km/h (2 Bft)
10.11.2014 03:45 8,6 C 7,2 C 97 % 1009,0 hPa 0,0 l/m 0 min 1 min 0 W/m 8,4 km/h (2 Bft)
10.11.2014 03:46 8,6 C 7,2 C 97 % 1009,1 hPa 0,2 l/m 0 min 1 min 0 W/m 12,6 km/h (3 Bft)
10.11.2014 03:47 8,6 C 7,2 C 97 % 1009,1 hPa 0,0 l/m 0 min 1 min 0 W/m 10,5 km/h (2 Bft)
10.11.2014 03:48 8,6 C 7,2 C 97 % 1009,1 hPa 0,0 l/m 0 min 0 min 0 W/m 12,6 km/h (3 Bft)
10.11.2014 03:49 8,6 C 7,2 C 97 % 1009,1 hPa 0,0 l/m 0 min 0 min 0 W/m 10,5 km/h (2 Bft)
10.11.2014 03:50 8,6 C 7,2 C 97 % 1009,0 hPa 0,0 l/m 0 min 1 min 0 W/m 12,6 km/h (3 Bft)
10.11.2014 03:51 8,6 C 7,2 C 97 % 1009,1 hPa 0,0 l/m 0 min 1 min 0 W/m 12,6 km/h (3 Bft)
10.11.2014 03:52 8,6 C 7,2 C 97 % 1009,0 hPa 0,0 l/m 0 min 1 min 0 W/m 8,4 km/h (2 Bft)
10.11.2014 03:53 8,6 C 7,2 C 97 % 1009,0 hPa 0,0 l/m 0 min 1 min 0 W/m 12,6 km/h (3 Bft)
10.11.2014 03:54 8,7 C 7,2 C 97 % 1009,0 hPa 0,0 l/m 0 min 1 min 0 W/m 10,5 km/h (2 Bft)
10.11.2014 03:55 8,7 C 7,2 C 97 % 1009,0 hPa 0,0 l/m 0 min 1 min 0 W/m 10,5 km/h (2 Bft)
10.11.2014 03:56 8,7 C 7,2 C 97 % 1009,0 hPa 0,0 l/m 0 min 1 min 0 W/m 10,5 km/h (2 Bft)
10.11.2014 03:57 8,7 C 7,2 C 97 % 1009,0 hPa 0,0 l/m 0 min 1 min 0 W/m 10,5 km/h (2 Bft)
10.11.2014 03:58 8,7 C 7,2 C 97 % 1009,0 hPa 0,0 l/m 0 min 1 min 0 W/m 8,4 km/h (2 Bft)
10.11.2014 03:59 8,7 C 7,2 C 97 % 1008,9 hPa 0,0 l/m 0 min 1 min 0 W/m 10,5 km/h (2 Bft)
10.11.2014 04:00 8,7 C 7,2 C 97 % 1009,0 hPa 0,0 l/m 0 min 1 min 0 W/m 12,6 km/h (3 Bft)
10.11.2014 04:01 8,7 C 7,2 C 97 % 1009,0 hPa 0,0 l/m 0 min 1 min 0 W/m 8,4 km/h (2 Bft)
10.11.2014 04:02 8,7 C 7,2 C 97 % 1009,0 hPa 0,0 l/m 0 min 1 min 0 W/m 14,6 km/h (3 Bft)
10.11.2014 04:03 8,7 C 7,2 C 97 % 1009,0 hPa 0,0 l/m 0 min 1 min 0 W/m 12,6 km/h (3 Bft)
10.11.2014 04:04 8,7 C 7,2 C 97 % 1009,0 hPa 0,0 l/m 0 min 1 min 0 W/m 10,5 km/h (2 Bft)
10.11.2014 04:05 8,7 C 7,2 C 97 % 1009,0 hPa 0,0 l/m 0 min 1 min 0 W/m 12,6 km/h (3 Bft)
10.11.2014 04:06 8,7 C 7,2 C 97 % 1009,1 hPa 0,2 l/m 0 min 1 min 0 W/m 12,6 km/h (3 Bft)
10.11.2014 04:07 8,7 C 7,2 C 97 % 1009,0 hPa 0,0 l/m 0 min 1 min 0 W/m 14,6 km/h (3 Bft)
10.11.2014 04:08 8,7 C 7,2 C 97 % 1009,1 hPa 0,0 l/m 0 min 1 min 0 W/m 10,5 km/h (2 Bft)
10.11.2014 04:09 8,7 C 7,2 C 97 % 1009,1 hPa 0,0 l/m 0 min 1 min 0 W/m 8,4 km/h (2 Bft)
10.11.2014 04:10 8,7 C 7,2 C 97 % 1009,1 hPa 0,0 l/m 0 min 1 min 0 W/m 12,6 km/h (3 Bft)
10.11.2014 04:11 8,7 C 7,2 C 97 % 1009,1 hPa 0,0 l/m 0 min 1 min 0 W/m 8,4 km/h (2 Bft)
10.11.2014 04:12 8,7 C 7,2 C 97 % 1009,0 hPa 0,0 l/m 0 min 1 min 0 W/m 6,3 km/h (2 Bft)
10.11.2014 04:13 8,7 C 7,2 C 97 % 1009,1 hPa 0,0 l/m 0 min 1 min 0 W/m 6,3 km/h (2 Bft)
10.11.2014 04:14 8,7 C 7,2 C 97 % 1009,0 hPa 0,0 l/m 0 min 1 min 0 W/m 14,6 km/h (3 Bft)
10.11.2014 04:15 8,7 C 7,2 C 97 % 1009,1 hPa 0,0 l/m 0 min 1 min 0 W/m 8,4 km/h (2 Bft)
10.11.2014 04:16 8,7 C 7,2 C 97 % 1009,1 hPa 0,0 l/m 0 min 1 min 0 W/m 10,5 km/h (2 Bft)
10.11.2014 04:17 8,7 C 7,2 C 97 % 1009,1 hPa 0,0 l/m 0 min 1 min 0 W/m 10,5 km/h (2 Bft)
10.11.2014 04:18 8,7 C 7,2 C 97 % 1009,1 hPa 0,2 l/m 0 min 1 min 0 W/m 14,6 km/h (3 Bft)
10.11.2014 04:19 8,7 C 7,2 C 97 % 1009,0 hPa 0,0 l/m 0 min 1 min 0 W/m 12,6 km/h (3 Bft)
10.11.2014 04:20 8,7 C 7,2 C 97 % 1009,0 hPa 0,0 l/m 0 min 1 min 0 W/m 8,4 km/h (2 Bft)
10.11.2014 04:21 8,7 C 7,2 C 97 % 1009,0 hPa 0,0 l/m 0 min 1 min 0 W/m 8,4 km/h (2 Bft)
10.11.2014 04:22 8,7 C 7,2 C 97 % 1009,0 hPa 0,0 l/m 0 min 1 min 0 W/m 8,4 km/h (2 Bft)
10.11.2014 04:23 8,7 C 7,2 C 97 % 1009,1 hPa 0,0 l/m 0 min 1 min 0 W/m 8,4 km/h (2 Bft)
10.11.2014 04:24 8,7 C 7,2 C 97 % 1009,1 hPa 0,0 l/m 0 min 1 min 0 W/m 8,4 km/h (2 Bft)
10.11.2014 04:25 8,7 C 7,2 C 97 % 1009,1 hPa 0,0 l/m 0 min 1 min 0 W/m 10,5 km/h (2 Bft)
10.11.2014 04:26 8,7 C 7,2 C 97 % 1009,1 hPa 0,0 l/m 0 min 1 min 0 W/m 8,4 km/h (2 Bft)
10.11.2014 04:27 8,7 C 7,2 C 97 % 1009,1 hPa 0,0 l/m 0 min 1 min 0 W/m 12,6 km/h (3 Bft)
10.11.2014 04:28 8,7 C 7,2 C 97 % 1009,1 hPa 0,0 l/m 0 min 1 min 0 W/m 8,4 km/h (2 Bft)
10.11.2014 04:29 8,7 C 7,2 C 97 % 1009,1 hPa 0,0 l/m 0 min 1 min 0 W/m 6,3 km/h (2 Bft)
10.11.2014 04:30 8,7 C 7,2 C 97 % 1009,0 hPa 0,0 l/m 0 min 1 min 0 W/m 6,3 km/h (2 Bft)
10.11.2014 04:31 8,7 C 7,2 C 97 % 1009,0 hPa 0,0 l/m 0 min 1 min 0 W/m 8,4 km/h (2 Bft)
10.11.2014 04:32 8,7 C 7,2 C 97 % 1009,0 hPa 0,0 l/m 0 min 1 min 0 W/m 8,4 km/h (2 Bft)
10.11.2014 04:33 8,7 C 7,2 C 97 % 1009,0 hPa 0,0 l/m 0 min 1 min 0 W/m 8,4 km/h (2 Bft)
10.11.2014 04:34 8,7 C 7,2 C 97 % 1009,0 hPa 0,0 l/m 0 min 1 min 0 W/m 6,3 km/h (2 Bft)
10.11.2014 04:35 8,7 C 7,2 C 97 % 1009,0 hPa 0,2 l/m 0 min 1 min 0 W/m 4,2 km/h (1 Bft)
10.11.2014 04:36 8,7 C 7,2 C 97 % 1009,0 hPa 0,0 l/m 0 min 1 min 0 W/m 6,3 km/h (2 Bft)
10.11.2014 04:37 8,7 C 7,2 C 97 % 1009,0 hPa 0,0 l/m 0 min 1 min 0 W/m 8,4 km/h (2 Bft)
10.11.2014 04:38 8,7 C 7,2 C 97 % 1009,1 hPa 0,0 l/m 0 min 1 min 0 W/m 8,4 km/h (2 Bft)
10.11.2014 04:39 8,7 C 7,2 C 97 % 1009,0 hPa 0,0 l/m 0 min 1 min 0 W/m 8,4 km/h (2 Bft)
10.11.2014 04:40 8,7 C 7,2 C 97 % 1009,0 hPa 0,2 l/m 0 min 1 min 0 W/m 10,5 km/h (2 Bft)
10.11.2014 04:41 8,7 C 7,2 C 97 % 1009,0 hPa 0,0 l/m 0 min 1 min 0 W/m 8,4 km/h (2 Bft)
10.11.2014 04:42 8,7 C 7,2 C 97 % 1008,9 hPa 0,0 l/m 0 min 1 min 0 W/m 8,4 km/h (2 Bft)
10.11.2014 04:43 8,7 C 7,2 C 97 % 1008,9 hPa 0,0 l/m 0 min 1 min 0 W/m 8,4 km/h (2 Bft)
10.11.2014 04:44 8,7 C 7,2 C 97 % 1008,9 hPa 0,0 l/m 0 min 1 min 0 W/m 10,5 km/h (2 Bft)
10.11.2014 04:45 8,7 C 7,2 C 97 % 1008,9 hPa 0,2 l/m 0 min 1 min 0 W/m 8,4 km/h (2 Bft)
10.11.2014 04:46 8,7 C 7,2 C 97 % 1009,0 hPa 0,0 l/m 0 min 1 min 0 W/m 8,4 km/h (2 Bft)
10.11.2014 04:47 8,7 C 7,2 C 97 % 1009,0 hPa 0,0 l/m 0 min 1 min 0 W/m 8,4 km/h (2 Bft)
10.11.2014 04:48 8,7 C 7,2 C 97 % 1009,0 hPa 0,0 l/m 0 min 1 min 0 W/m 10,5 km/h (2 Bft)
10.11.2014 04:49 8,7 C 7,2 C 97 % 1009,0 hPa 0,0 l/m 0 min 1 min 0 W/m 8,4 km/h (2 Bft)
10.11.2014 04:50 8,7 C 7,2 C 97 % 1009,1 hPa 0,0 l/m 0 min 1 min 0 W/m 8,4 km/h (2 Bft)
10.11.2014 04:51 8,7 C 7,2 C 97 % 1009,0 hPa 0,0 l/m 0 min 1 min 0 W/m 8,4 km/h (2 Bft)
10.11.2014 04:52 8,7 C 7,2 C 97 % 1009,0 hPa 0,0 l/m 0 min 1 min 0 W/m 8,4 km/h (2 Bft)
10.11.2014 04:53 8,7 C 7,2 C 97 % 1008,9 hPa 0,0 l/m 0 min 1 min 0 W/m 10,5 km/h (2 Bft)
10.11.2014 04:54 8,7 C 7,2 C 97 % 1008,9 hPa 0,0 l/m 0 min 1 min 0 W/m 8,4 km/h (2 Bft)
10.11.2014 04:55 8,7 C 7,2 C 97 % 1009,0 hPa 0,0 l/m 0 min 1 min 0 W/m 8,4 km/h (2 Bft)
10.11.2014 04:56 8,7 C 7,2 C 97 % 1008,9 hPa 0,0 l/m 0 min 1 min 0 W/m 6,3 km/h (2 Bft)
10.11.2014 04:57 8,7 C 7,2 C 97 % 1008,9 hPa 0,0 l/m 0 min 1 min 0 W/m 10,5 km/h (2 Bft)
10.11.2014 04:58 8,7 C 7,2 C 97 % 1009,0 hPa 0,0 l/m 0 min 1 min 0 W/m 6,3 km/h (2 Bft)
10.11.2014 04:59 8,7 C 7,2 C 97 % 1008,9 hPa 0,2 l/m 0 min 1 min 0 W/m 8,4 km/h (2 Bft)
10.11.2014 05:00 8,7 C 7,2 C 97 % 1008,9 hPa 0,0 l/m 0 min 1 min 0 W/m 10,5 km/h (2 Bft)
10.11.2014 05:01 8,7 C 7,2 C 97 % 1008,9 hPa 0,0 l/m 0 min 1 min 0 W/m 10,5 km/h (2 Bft)
10.11.2014 05:02 8,7 C 7,2 C 97 % 1008,9 hPa 0,0 l/m 0 min 1 min 0 W/m 8,4 km/h (2 Bft)
10.11.2014 05:03 8,7 C 7,2 C 97 % 1008,9 hPa 0,0 l/m 0 min 1 min 0 W/m 6,3 km/h (2 Bft)
10.11.2014 05:04 8,7 C 7,2 C 97 % 1008,8 hPa 0,0 l/m 0 min 1 min 0 W/m 8,4 km/h (2 Bft)
10.11.2014 05:05 8,7 C 7,2 C 97 % 1008,9 hPa 0,0 l/m 0 min 1 min 0 W/m 8,4 km/h (2 Bft)
10.11.2014 05:06 8,7 C 7,2 C 97 % 1008,7 hPa 0,0 l/m 0 min 1 min 0 W/m 8,4 km/h (2 Bft)
10.11.2014 05:07 8,7 C 7,2 C 97 % 1008,8 hPa 0,0 l/m 0 min 1 min 0 W/m 8,4 km/h (2 Bft)
10.11.2014 05:08 8,7 C 7,2 C 97 % 1008,7 hPa 0,0 l/m 0 min 1 min 0 W/m 6,3 km/h (2 Bft)
10.11.2014 05:09 8,7 C 7,2 C 98 % 1008,7 hPa 0,0 l/m 0 min 1 min 0 W/m 8,4 km/h (2 Bft)
10.11.2014 05:10 8,7 C 7,2 C 97 % 1008,8 hPa 0,0 l/m 0 min 1 min 0 W/m 8,4 km/h (2 Bft)
10.11.2014 05:11 8,7 C 7,2 C 98 % 1008,8 hPa 0,0 l/m 0 min 1 min 0 W/m 6,3 km/h (2 Bft)
10.11.2014 05:12 8,7 C 7,2 C 97 % 1008,8 hPa 0,0 l/m 0 min 1 min 0 W/m 8,4 km/h (2 Bft)
10.11.2014 05:13 8,7 C 7,2 C 97 % 1008,8 hPa 0,0 l/m 0 min 1 min 0 W/m 10,5 km/h (2 Bft)
10.11.2014 05:14 8,7 C 7,2 C 97 % 1008,8 hPa 0,0 l/m 0 min 1 min 0 W/m 10,5 km/h (2 Bft)
10.11.2014 05:15 8,7 C 7,2 C 97 % 1008,8 hPa 0,0 l/m 0 min 1 min 0 W/m 12,6 km/h (3 Bft)
10.11.2014 05:16 8,7 C 7,2 C 97 % 1008,8 hPa 0,0 l/m 0 min 0 min 0 W/m 10,5 km/h (2 Bft)
10.11.2014 05:17 8,7 C 7,2 C 97 % 1008,8 hPa 0,0 l/m 0 min 0 min 0 W/m 10,5 km/h (2 Bft)
10.11.2014 05:18 8,7 C 7,2 C 97 % 1008,8 hPa 0,0 l/m 0 min 0 min 0 W/m 10,5 km/h (2 Bft)
10.11.2014 05:19 8,7 C 7,2 C 97 % 1008,8 hPa 0,0 l/m 0 min 0 min 0 W/m 10,5 km/h (2 Bft)
10.11.2014 05:20 8,7 C 7,2 C 97 % 1008,8 hPa 0,0 l/m 0 min 0 min 0 W/m 4,2 km/h (1 Bft)
10.11.2014 05:21 8,7 C 7,2 C 97 % 1008,8 hPa 0,0 l/m 0 min 0 min 0 W/m 8,4 km/h (2 Bft)
10.11.2014 05:22 8,7 C 7,2 C 97 % 1008,8 hPa 0,0 l/m 0 min 0 min 0 W/m 6,3 km/h (2 Bft)
10.11.2014 05:23 8,7 C 7,2 C 97 % 1008,9 hPa 0,0 l/m 0 min 0 min 0 W/m 6,3 km/h (2 Bft)
10.11.2014 05:24 8,7 C 7,2 C 97 % 1008,9 hPa 0,0 l/m 0 min 0 min 0 W/m 6,3 km/h (2 Bft)
10.11.2014 05:25 8,7 C 7,2 C 97 % 1008,9 hPa 0,0 l/m 0 min 0 min 0 W/m 10,5 km/h (2 Bft)
10.11.2014 05:26 8,7 C 7,2 C 97 % 1008,8 hPa 0,0 l/m 0 min 0 min 0 W/m 8,4 km/h (2 Bft)
10.11.2014 05:27 8,7 C 7,2 C 97 % 1008,8 hPa 0,0 l/m 0 min 0 min 0 W/m 10,5 km/h (2 Bft)
10.11.2014 05:28 8,7 C 7,2 C 97 % 1008,8 hPa 0,0 l/m 0 min 0 min 0 W/m 10,5 km/h (2 Bft)
10.11.2014 05:29 8,7 C 7,2 C 97 % 1008,8 hPa 0,0 l/m 0 min 0 min 0 W/m 10,5 km/h (2 Bft)
10.11.2014 05:30 8,7 C 7,2 C 97 % 1008,8 hPa 0,0 l/m 0 min 0 min 0 W/m 10,5 km/h (2 Bft)
10.11.2014 05:31 8,7 C 7,2 C 97 % 1008,7 hPa 0,0 l/m 0 min 0 min 0 W/m 10,5 km/h (2 Bft)
10.11.2014 05:32 8,7 C 7,2 C 97 % 1008,8 hPa 0,0 l/m 0 min 0 min 0 W/m 12,6 km/h (3 Bft)
10.11.2014 05:33 8,7 C 7,2 C 97 % 1008,8 hPa 0,0 l/m 0 min 0 min 0 W/m 10,5 km/h (2 Bft)
10.11.2014 05:34 8,7 C 7,2 C 97 % 1008,7 hPa 0,0 l/m 0 min 0 min 0 W/m 8,4 km/h (2 Bft)
10.11.2014 05:35 8,7 C 7,2 C 97 % 1008,8 hPa 0,0 l/m 0 min 0 min 0 W/m 10,5 km/h (2 Bft)
10.11.2014 05:36 8,7 C 7,2 C 97 % 1008,7 hPa 0,0 l/m 0 min 0 min 0 W/m 8,4 km/h (2 Bft)
10.11.2014 05:37 8,7 C 7,2 C 97 % 1008,7 hPa 0,0 l/m 0 min 0 min 0 W/m 8,4 km/h (2 Bft)
10.11.2014 05:38 8,7 C 7,2 C 97 % 1008,7 hPa 0,0 l/m 0 min 0 min 0 W/m 14,6 km/h (3 Bft)
10.11.2014 05:39 8,7 C 7,2 C 97 % 1008,7 hPa 0,0 l/m 0 min 0 min 0 W/m 12,6 km/h (3 Bft)
10.11.2014 05:40 8,7 C 7,2 C 97 % 1008,8 hPa 0,0 l/m 0 min 0 min 0 W/m 10,5 km/h (2 Bft)
10.11.2014 05:41 8,7 C 7,2 C 97 % 1008,7 hPa 0,0 l/m 0 min 0 min 0 W/m 8,4 km/h (2 Bft)
10.11.2014 05:42 8,7 C 7,2 C 97 % 1008,6 hPa 0,0 l/m 0 min 0 min 0 W/m 10,5 km/h (2 Bft)
10.11.2014 05:43 8,7 C 7,2 C 97 % 1008,6 hPa 0,0 l/m 0 min 0 min 0 W/m 10,5 km/h (2 Bft)
10.11.2014 05:44 8,7 C 7,2 C 97 % 1008,6 hPa 0,0 l/m 0 min 0 min 0 W/m 10,5 km/h (2 Bft)
10.11.2014 05:45 8,7 C 7,2 C 97 % 1008,7 hPa 0,0 l/m 0 min 0 min 0 W/m 8,4 km/h (2 Bft)
10.11.2014 05:46 8,7 C 7,2 C 97 % 1008,7 hPa 0,0 l/m 0 min 0 min 0 W/m 10,5 km/h (2 Bft)
10.11.2014 05:47 8,7 C 7,2 C 98 % 1008,6 hPa 0,0 l/m 0 min 0 min 0 W/m 6,3 km/h (2 Bft)
10.11.2014 05:48 8,7 C 7,2 C 98 % 1008,7 hPa 0,0 l/m 0 min 0 min 0 W/m 8,4 km/h (2 Bft)
10.11.2014 05:49 8,7 C 7,2 C 98 % 1008,7 hPa 0,0 l/m 0 min 0 min 0 W/m 12,6 km/h (3 Bft)
10.11.2014 05:50 8,7 C 7,2 C 98 % 1008,6 hPa 0,0 l/m 0 min 0 min 0 W/m 10,5 km/h (2 Bft)
10.11.2014 05:51 8,7 C 7,2 C 98 % 1008,7 hPa 0,0 l/m 0 min 0 min 0 W/m 10,5 km/h (2 Bft)
10.11.2014 05:52 8,7 C 7,2 C 98 % 1008,7 hPa 0,0 l/m 0 min 0 min 0 W/m 12,6 km/h (3 Bft)
10.11.2014 05:53 8,7 C 7,2 C 98 % 1008,6 hPa 0,0 l/m 0 min 0 min 0 W/m 10,5 km/h (2 Bft)
10.11.2014 05:54 8,7 C 7,2 C 98 % 1008,6 hPa 0,0 l/m 0 min 0 min 0 W/m 8,4 km/h (2 Bft)
10.11.2014 05:55 8,7 C 7,2 C 98 % 1008,6 hPa 0,0 l/m 0 min 0 min 0 W/m 10,5 km/h (2 Bft)
10.11.2014 05:56 8,7 C 7,2 C 98 % 1008,6 hPa 0,0 l/m 0 min 0 min 0 W/m 10,5 km/h (2 Bft)
10.11.2014 05:57 8,7 C 7,8 C 98 % 1008,6 hPa 0,0 l/m 0 min 0 min 0 W/m 10,5 km/h (2 Bft)
10.11.2014 05:58 8,7 C 7,8 C 98 % 1008,6 hPa 0,0 l/m 0 min 0 min 0 W/m 8,4 km/h (2 Bft)
10.11.2014 05:59 8,7 C 7,8 C 98 % 1008,7 hPa 0,0 l/m 0 min 0 min 0 W/m 8,4 km/h (2 Bft)
10.11.2014 06:00 8,7 C 7,8 C 98 % 1008,7 hPa 0,0 l/m 0 min 0 min 0 W/m 10,5 km/h (2 Bft)
10.11.2014 06:01 8,7 C 7,8 C 98 % 1008,7 hPa 0,0 l/m 0 min 0 min 0 W/m 10,5 km/h (2 Bft)
10.11.2014 06:02 8,7 C 7,8 C 98 % 1008,8 hPa 0,0 l/m 0 min 0 min 0 W/m 6,3 km/h (2 Bft)
10.11.2014 06:03 8,7 C 7,8 C 98 % 1008,7 hPa 0,0 l/m 0 min 0 min 0 W/m 8,4 km/h (2 Bft)
10.11.2014 06:04 8,7 C 7,8 C 98 % 1008,8 hPa 0,0 l/m 0 min 0 min 0 W/m 10,5 km/h (2 Bft)
10.11.2014 06:05 8,7 C 7,8 C 98 % 1008,7 hPa 0,0 l/m 0 min 0 min 0 W/m 10,5 km/h (2 Bft)
10.11.2014 06:06 8,7 C 7,8 C 98 % 1008,7 hPa 0,0 l/m 0 min 0 min 0 W/m 10,5 km/h (2 Bft)
10.11.2014 06:07 8,7 C 7,8 C 98 % 1008,7 hPa 0,0 l/m 0 min 0 min 0 W/m 10,5 km/h (2 Bft)
10.11.2014 06:08 8,7 C 7,8 C 98 % 1008,7 hPa 0,0 l/m 0 min 0 min 0 W/m 6,3 km/h (2 Bft)
10.11.2014 06:09 8,7 C 7,8 C 98 % 1008,7 hPa 0,0 l/m 0 min 0 min 0 W/m 8,4 km/h (2 Bft)
10.11.2014 06:10 8,7 C 7,8 C 98 % 1008,6 hPa 0,0 l/m 0 min 0 min 0 W/m 8,4 km/h (2 Bft)
10.11.2014 06:11 8,7 C 7,8 C 98 % 1008,6 hPa 0,0 l/m 0 min 0 min 0 W/m 10,5 km/h (2 Bft)
10.11.2014 06:12 8,7 C 7,8 C 98 % 1008,6 hPa 0,0 l/m 0 min 0 min 0 W/m 10,5 km/h (2 Bft)
10.11.2014 06:13 8,7 C 7,8 C 98 % 1008,7 hPa 0,0 l/m 0 min 0 min 0 W/m 10,5 km/h (2 Bft)
10.11.2014 06:14 8,7 C 7,8 C 98 % 1008,7 hPa 0,0 l/m 0 min 0 min 0 W/m 8,4 km/h (2 Bft)
10.11.2014 06:15 8,7 C 7,8 C 98 % 1008,7 hPa 0,0 l/m 0 min 0 min 0 W/m 8,4 km/h (2 Bft)
10.11.2014 06:16 8,7 C 7,8 C 98 % 1008,7 hPa 0,0 l/m 0 min 0 min 0 W/m 10,5 km/h (2 Bft)
10.11.2014 06:17 8,7 C 7,8 C 98 % 1008,7 hPa 0,0 l/m 0 min 0 min 0 W/m 6,3 km/h (2 Bft)
10.11.2014 06:18 8,7 C 7,8 C 98 % 1008,8 hPa 0,0 l/m 0 min 0 min 0 W/m 8,4 km/h (2 Bft)
10.11.2014 06:19 8,7 C 7,8 C 98 % 1008,8 hPa 0,0 l/m 0 min 0 min 0 W/m 10,5 km/h (2 Bft)
10.11.2014 06:20 8,7 C 7,8 C 98 % 1008,7 hPa 0,0 l/m 0 min 0 min 0 W/m 6,3 km/h (2 Bft)
10.11.2014 06:21 8,7 C 7,8 C 98 % 1008,8 hPa 0,0 l/m 0 min 0 min 0 W/m 6,3 km/h (2 Bft)
10.11.2014 06:22 8,7 C 7,8 C 98 % 1008,7 hPa 0,0 l/m 0 min 0 min 0 W/m 6,3 km/h (2 Bft)
10.11.2014 06:23 8,7 C 7,8 C 98 % 1008,8 hPa 0,0 l/m 0 min 0 min 0 W/m 10,5 km/h (2 Bft)
10.11.2014 06:24 8,7 C 7,8 C 98 % 1008,9 hPa 0,0 l/m 0 min 0 min 0 W/m 8,4 km/h (2 Bft)
10.11.2014 06:25 8,7 C 7,8 C 98 % 1008,8 hPa 0,0 l/m 0 min 0 min 0 W/m 10,5 km/h (2 Bft)
10.11.2014 06:26 8,7 C 7,8 C 98 % 1008,9 hPa 0,0 l/m 0 min 0 min 0 W/m 10,5 km/h (2 Bft)
10.11.2014 06:27 8,7 C 7,8 C 98 % 1009,0 hPa 0,0 l/m 0 min 0 min 0 W/m 12,6 km/h (3 Bft)
10.11.2014 06:28 8,7 C 7,8 C 98 % 1009,0 hPa 0,0 l/m 0 min 0 min 0 W/m 6,3 km/h (2 Bft)
10.11.2014 06:29 8,7 C 7,8 C 98 % 1009,0 hPa 0,0 l/m 0 min 0 min 0 W/m 10,5 km/h (2 Bft)
10.11.2014 06:30 8,7 C 7,8 C 98 % 1009,0 hPa 0,0 l/m 0 min 0 min 0 W/m 10,5 km/h (2 Bft)
10.11.2014 06:31 8,7 C 7,8 C 98 % 1009,1 hPa 0,0 l/m 0 min 0 min 0 W/m 8,4 km/h (2 Bft)
10.11.2014 06:32 8,7 C 7,8 C 98 % 1009,0 hPa 0,0 l/m 0 min 0 min 0 W/m 8,4 km/h (2 Bft)
10.11.2014 06:33 8,7 C 7,8 C 98 % 1009,0 hPa 0,0 l/m 0 min 0 min 0 W/m 8,4 km/h (2 Bft)
10.11.2014 06:34 8,7 C 7,8 C 98 % 1009,0 hPa 0,0 l/m 0 min 0 min 0 W/m 10,5 km/h (2 Bft)
10.11.2014 06:35 8,7 C 7,8 C 98 % 1009,0 hPa 0,0 l/m 0 min 0 min 0 W/m 6,3 km/h (2 Bft)
10.11.2014 06:36 8,7 C 7,8 C 98 % 1009,0 hPa 0,0 l/m 0 min 0 min 0 W/m 8,4 km/h (2 Bft)
10.11.2014 06:37 8,8 C 7,8 C 98 % 1009,0 hPa 0,0 l/m 0 min 0 min 0 W/m 6,3 km/h (2 Bft)
10.11.2014 06:38 8,8 C 7,8 C 98 % 1009,0 hPa 0,0 l/m 0 min 0 min 0 W/m 8,4 km/h (2 Bft)
10.11.2014 06:39 8,8 C 7,8 C 98 % 1009,0 hPa 0,0 l/m 0 min 0 min 0 W/m 6,3 km/h (2 Bft)
10.11.2014 06:40 8,8 C 7,8 C 98 % 1009,0 hPa 0,0 l/m 0 min 0 min 0 W/m 6,3 km/h (2 Bft)
10.11.2014 06:41 8,8 C 7,8 C 98 % 1009,0 hPa 0,0 l/m 0 min 0 min 0 W/m 8,4 km/h (2 Bft)
10.11.2014 06:42 8,8 C 7,8 C 98 % 1009,0 hPa 0,0 l/m 0 min 0 min 0 W/m 8,4 km/h (2 Bft)
10.11.2014 06:43 8,8 C 7,8 C 98 % 1009,0 hPa 0,0 l/m 0 min 0 min 0 W/m 4,2 km/h (1 Bft)
10.11.2014 06:44 8,8 C 7,8 C 98 % 1009,0 hPa 0,0 l/m 0 min 0 min 0 W/m 8,4 km/h (2 Bft)
10.11.2014 06:45 8,8 C 7,8 C 98 % 1009,0 hPa 0,0 l/m 0 min 0 min 0 W/m 6,3 km/h (2 Bft)
10.11.2014 06:46 8,7 C 7,8 C 98 % 1009,0 hPa 0,0 l/m 0 min 0 min 0 W/m 6,3 km/h (2 Bft)
10.11.2014 06:47 8,8 C 7,8 C 98 % 1009,0 hPa 0,0 l/m 0 min 0 min 0 W/m 6,3 km/h (2 Bft)
10.11.2014 06:48 8,8 C 7,8 C 98 % 1009,0 hPa 0,0 l/m 0 min 0 min 0 W/m 10,5 km/h (2 Bft)
10.11.2014 06:49 8,8 C 7,8 C 98 % 1009,1 hPa 0,0 l/m 0 min 0 min 0 W/m 6,3 km/h (2 Bft)
10.11.2014 06:50 8,8 C 7,8 C 98 % 1009,0 hPa 0,0 l/m 0 min 0 min 0 W/m 6,3 km/h (2 Bft)
10.11.2014 06:51 8,8 C 7,8 C 98 % 1009,1 hPa 0,0 l/m 0 min 0 min 0 W/m 8,4 km/h (2 Bft)
10.11.2014 06:52 8,8 C 7,8 C 98 % 1009,0 hPa 0,0 l/m 0 min 0 min 0 W/m 8,4 km/h (2 Bft)
10.11.2014 06:53 8,8 C 7,8 C 98 % 1009,1 hPa 0,0 l/m 0 min 0 min 0 W/m 6,3 km/h (2 Bft)
10.11.2014 06:54 8,8 C 7,8 C 98 % 1009,1 hPa 0,0 l/m 0 min 0 min 0 W/m 8,4 km/h (2 Bft)
10.11.2014 06:55 8,8 C 7,8 C 98 % 1009,1 hPa 0,0 l/m 0 min 0 min 0 W/m 8,4 km/h (2 Bft)
10.11.2014 06:56 8,8 C 7,8 C 98 % 1009,1 hPa 0,0 l/m 0 min 0 min 0 W/m 6,3 km/h (2 Bft)
10.11.2014 06:57 8,8 C 7,8 C 98 % 1009,1 hPa 0,0 l/m 0 min 0 min 0 W/m 8,4 km/h (2 Bft)
10.11.2014 06:58 8,8 C 7,8 C 98 % 1009,2 hPa 0,0 l/m 0 min 0 min 0 W/m 8,4 km/h (2 Bft)
10.11.2014 06:59 8,8 C 7,8 C 98 % 1009,2 hPa 0,0 l/m 0 min 0 min 0 W/m 6,3 km/h (2 Bft)
10.11.2014 07:00 8,8 C 7,8 C 98 % 1009,2 hPa 0,0 l/m 0 min 0 min 0 W/m 6,3 km/h (2 Bft)
10.11.2014 07:01 8,8 C 7,8 C 98 % 1009,2 hPa 0,0 l/m 0 min 0 min 0 W/m 8,4 km/h (2 Bft)
10.11.2014 07:02 8,8 C 7,8 C 98 % 1009,2 hPa 0,0 l/m 0 min 0 min 0 W/m 8,4 km/h (2 Bft)
10.11.2014 07:03 8,8 C 7,8 C 98 % 1009,2 hPa 0,0 l/m 0 min 0 min 0 W/m 8,4 km/h (2 Bft)
10.11.2014 07:04 8,8 C 7,8 C 98 % 1009,2 hPa 0,0 l/m 0 min 0 min 0 W/m 10,5 km/h (2 Bft)
10.11.2014 07:05 8,8 C 7,8 C 98 % 1009,2 hPa 0,0 l/m 0 min 0 min 0 W/m 8,4 km/h (2 Bft)
10.11.2014 07:06 8,8 C 7,8 C 98 % 1009,2 hPa 0,0 l/m 0 min 0 min 0 W/m 6,3 km/h (2 Bft)
10.11.2014 07:07 8,7 C 7,8 C 98 % 1009,3 hPa 0,0 l/m 0 min 0 min 0 W/m 6,3 km/h (2 Bft)
10.11.2014 07:08 8,8 C 7,8 C 98 % 1009,2 hPa 0,0 l/m 0 min 0 min 0 W/m 6,3 km/h (2 Bft)
10.11.2014 07:09 8,8 C 7,8 C 98 % 1009,3 hPa 0,0 l/m 0 min 0 min 0 W/m 8,4 km/h (2 Bft)
10.11.2014 07:10 8,8 C 7,8 C 98 % 1009,2 hPa 0,0 l/m 0 min 0 min 0 W/m 8,4 km/h (2 Bft)
10.11.2014 07:11 8,8 C 7,8 C 98 % 1009,2 hPa 0,0 l/m 0 min 0 min 0 W/m 8,4 km/h (2 Bft)
10.11.2014 07:12 8,8 C 7,8 C 98 % 1009,2 hPa 0,0 l/m 0 min 0 min 0 W/m 8,4 km/h (2 Bft)
10.11.2014 07:13 8,8 C 7,8 C 98 % 1009,2 hPa 0,0 l/m 0 min 0 min 0 W/m 8,4 km/h (2 Bft)
10.11.2014 07:14 8,7 C 7,8 C 98 % 1009,2 hPa 0,0 l/m 0 min 0 min 0 W/m 8,4 km/h (2 Bft)
10.11.2014 07:15 8,8 C 7,8 C 98 % 1009,2 hPa 0,0 l/m 0 min 0 min 0 W/m 8,4 km/h (2 Bft)
10.11.2014 07:16 8,8 C 7,8 C 98 % 1009,2 hPa 0,0 l/m 0 min 0 min 0 W/m 8,4 km/h (2 Bft)
10.11.2014 07:17 8,8 C 7,8 C 98 % 1009,2 hPa 0,0 l/m 0 min 0 min 0 W/m 10,5 km/h (2 Bft)
10.11.2014 07:18 8,8 C 7,8 C 98 % 1009,2 hPa 0,0 l/m 0 min 0 min 0 W/m 8,4 km/h (2 Bft)
10.11.2014 07:19 8,8 C 7,8 C 98 % 1009,2 hPa 0,0 l/m 0 min 0 min 0 W/m 10,5 km/h (2 Bft)
10.11.2014 07:20 8,8 C 7,8 C 98 % 1009,2 hPa 0,0 l/m 0 min 0 min 0 W/m 8,4 km/h (2 Bft)
10.11.2014 07:21 8,8 C 7,8 C 98 % 1009,2 hPa 0,0 l/m 0 min 0 min 0 W/m 6,3 km/h (2 Bft)
10.11.2014 07:22 8,8 C 7,8 C 98 % 1009,2 hPa 0,0 l/m 0 min 0 min 0 W/m 8,4 km/h (2 Bft)
10.11.2014 07:23 8,8 C 7,8 C 98 % 1009,2 hPa 0,0 l/m 0 min 0 min 0 W/m 8,4 km/h (2 Bft)
10.11.2014 07:24 8,8 C 7,8 C 98 % 1009,3 hPa 0,0 l/m 0 min 0 min 0 W/m 12,6 km/h (3 Bft)
10.11.2014 07:25 8,8 C 7,8 C 98 % 1009,2 hPa 0,0 l/m 0 min 0 min 0 W/m 10,5 km/h (2 Bft)
10.11.2014 07:26 8,8 C 7,8 C 98 % 1009,2 hPa 0,0 l/m 0 min 0 min 0 W/m 12,6 km/h (3 Bft)
10.11.2014 07:27 8,8 C 7,8 C 98 % 1009,3 hPa 0,0 l/m 0 min 0 min 0 W/m 10,5 km/h (2 Bft)
10.11.2014 07:28 8,8 C 7,8 C 98 % 1009,2 hPa 0,0 l/m 0 min 0 min 0 W/m 8,4 km/h (2 Bft)
10.11.2014 07:29 8,8 C 7,8 C 98 % 1009,3 hPa 0,0 l/m 0 min 0 min 0 W/m 12,6 km/h (3 Bft)
10.11.2014 07:30 8,8 C 7,8 C 98 % 1009,3 hPa 0,0 l/m 0 min 0 min 0 W/m 8,4 km/h (2 Bft)
10.11.2014 07:31 8,8 C 7,8 C 98 % 1009,3 hPa 0,0 l/m 0 min 0 min 0 W/m 8,4 km/h (2 Bft)
10.11.2014 07:32 8,8 C 7,8 C 98 % 1009,3 hPa 0,0 l/m 0 min 0 min 0 W/m 6,3 km/h (2 Bft)
10.11.2014 07:33 8,8 C 7,8 C 98 % 1009,3 hPa 0,0 l/m 0 min 0 min 0 W/m 8,4 km/h (2 Bft)
10.11.2014 07:34 8,8 C 7,8 C 98 % 1009,3 hPa 0,0 l/m 0 min 0 min 0 W/m 6,3 km/h (2 Bft)
10.11.2014 07:35 8,8 C 7,8 C 98 % 1009,3 hPa 0,0 l/m 0 min 0 min 0 W/m 8,4 km/h (2 Bft)
10.11.2014 07:36 8,8 C 7,8 C 98 % 1009,4 hPa 0,0 l/m 0 min 0 min 0 W/m 10,5 km/h (2 Bft)
10.11.2014 07:37 8,8 C 7,8 C 98 % 1009,4 hPa 0,0 l/m 0 min 0 min 0 W/m 8,4 km/h (2 Bft)
10.11.2014 07:38 8,8 C 7,8 C 98 % 1009,4 hPa 0,0 l/m 0 min 0 min 0 W/m 8,4 km/h (2 Bft)
10.11.2014 07:39 8,8 C 7,8 C 98 % 1009,4 hPa 0,0 l/m 0 min 0 min 0 W/m 12,6 km/h (3 Bft)
10.11.2014 07:40 8,8 C 7,8 C 98 % 1009,4 hPa 0,0 l/m 0 min 0 min 0 W/m 6,3 km/h (2 Bft)
10.11.2014 07:41 8,8 C 7,8 C 98 % 1009,4 hPa 0,0 l/m 0 min 0 min 0 W/m 6,3 km/h (2 Bft)
10.11.2014 07:42 8,8 C 7,8 C 98 % 1009,4 hPa 0,0 l/m 0 min 0 min 0 W/m 8,4 km/h (2 Bft)
10.11.2014 07:43 8,8 C 7,8 C 98 % 1009,5 hPa 0,0 l/m 0 min 0 min 0 W/m 10,5 km/h (2 Bft)
10.11.2014 07:44 8,8 C 7,8 C 98 % 1009,5 hPa 0,0 l/m 0 min 0 min 0 W/m 6,3 km/h (2 Bft)
10.11.2014 07:45 8,8 C 7,8 C 98 % 1009,6 hPa 0,0 l/m 0 min 0 min 0 W/m 8,4 km/h (2 Bft)
10.11.2014 07:46 8,8 C 7,8 C 98 % 1009,6 hPa 0,0 l/m 0 min 0 min 0 W/m 8,4 km/h (2 Bft)
10.11.2014 07:47 8,8 C 7,8 C 98 % 1009,6 hPa 0,0 l/m 0 min 0 min 0 W/m 8,4 km/h (2 Bft)
10.11.2014 07:48 8,8 C 7,8 C 98 % 1009,7 hPa 0,0 l/m 0 min 0 min 0 W/m 8,4 km/h (2 Bft)
10.11.2014 07:49 8,8 C 7,8 C 98 % 1009,7 hPa 0,0 l/m 0 min 0 min 0 W/m 8,4 km/h (2 Bft)
10.11.2014 07:50 8,8 C 7,8 C 98 % 1009,7 hPa 0,0 l/m 0 min 0 min 0 W/m 10,5 km/h (2 Bft)
10.11.2014 07:51 8,8 C 7,8 C 98 % 1009,7 hPa 0,0 l/m 0 min 0 min 0 W/m 10,5 km/h (2 Bft)
10.11.2014 07:52 8,9 C 7,8 C 98 % 1009,7 hPa 0,0 l/m 0 min 0 min 0 W/m 10,5 km/h (2 Bft)
10.11.2014 07:53 8,9 C 7,8 C 98 % 1009,6 hPa 0,0 l/m 0 min 0 min 0 W/m 10,5 km/h (2 Bft)
10.11.2014 07:54 8,8 C 7,8 C 98 % 1009,7 hPa 0,0 l/m 0 min 0 min 0 W/m 10,5 km/h (2 Bft)
10.11.2014 07:55 8,9 C 7,8 C 98 % 1009,7 hPa 0,0 l/m 0 min 0 min 0 W/m 8,4 km/h (2 Bft)
10.11.2014 07:56 8,9 C 7,8 C 98 % 1009,7 hPa 0,0 l/m 0 min 0 min 0 W/m 10,5 km/h (2 Bft)
10.11.2014 07:57 8,9 C 7,8 C 98 % 1009,7 hPa 0,0 l/m 0 min 0 min 0 W/m 12,6 km/h (3 Bft)
10.11.2014 07:58 8,9 C 7,8 C 98 % 1009,7 hPa 0,0 l/m 0 min 0 min 0 W/m 10,5 km/h (2 Bft)
10.11.2014 07:59 8,9 C 7,8 C 98 % 1009,8 hPa 0,0 l/m 0 min 0 min 0 W/m 10,5 km/h (2 Bft)
10.11.2014 08:00 8,9 C 7,8 C 98 % 1009,8 hPa 0,0 l/m 0 min 0 min 0 W/m 10,5 km/h (2 Bft)
10.11.2014 08:01 8,9 C 7,8 C 98 % 1009,8 hPa 0,0 l/m 0 min 0 min 0 W/m 6,3 km/h (2 Bft)
10.11.2014 08:04 8,9 C 7,8 C 98 % 1009,8 hPa 0,0 l/m 0 min 0 min 5 W/m 10,5 km/h (2 Bft)
10.11.2014 08:06 8,9 C 7,8 C 98 % 1009,8 hPa 0,0 l/m 0 min 0 min 5 W/m 10,5 km/h (2 Bft)
10.11.2014 08:08 8,9 C 7,8 C 98 % 1009,8 hPa 0,0 l/m 0 min 0 min 7 W/m 10,5 km/h (2 Bft)
10.11.2014 08:10 8,9 C 7,8 C 98 % 1009,7 hPa 0,0 l/m 0 min 0 min 9 W/m 12,6 km/h (3 Bft)
10.11.2014 08:12 8,9 C 7,8 C 98 % 1009,8 hPa 0,0 l/m 0 min 0 min 7 W/m 10,5 km/h (2 Bft)
10.11.2014 08:14 8,9 C 7,8 C 98 % 1009,8 hPa 0,0 l/m 0 min 0 min 8 W/m 10,5 km/h (2 Bft)
10.11.2014 08:16 8,9 C 7,8 C 98 % 1009,8 hPa 0,0 l/m 0 min 0 min 10 W/m 8,4 km/h (2 Bft)
10.11.2014 08:18 8,9 C 7,8 C 98 % 1009,8 hPa 0,0 l/m 0 min 0 min 11 W/m 10,5 km/h (2 Bft)
10.11.2014 08:20 8,9 C 7,8 C 98 % 1009,8 hPa 0,0 l/m 0 min 0 min 12 W/m 8,4 km/h (2 Bft)
10.11.2014 08:22 8,9 C 7,8 C 98 % 1009,8 hPa 0,0 l/m 0 min 0 min 12 W/m 10,5 km/h (2 Bft)
10.11.2014 08:24 8,9 C 7,8 C 98 % 1009,8 hPa 0,0 l/m 0 min 0 min 14 W/m 10,5 km/h (2 Bft)
10.11.2014 08:26 8,9 C 7,8 C 98 % 1009,8 hPa 0,0 l/m 0 min 0 min 14 W/m 8,4 km/h (2 Bft)
10.11.2014 08:28 8,9 C 7,8 C 98 % 1009,8 hPa 0,0 l/m 0 min 0 min 14 W/m 8,4 km/h (2 Bft)
10.11.2014 08:30 8,9 C 7,8 C 98 % 1009,8 hPa 0,0 l/m 0 min 0 min 14 W/m 10,5 km/h (2 Bft)
10.11.2014 08:32 8,9 C 7,8 C 98 % 1009,7 hPa 0,0 l/m 0 min 0 min 17 W/m 8,4 km/h (2 Bft)
10.11.2014 08:34 8,9 C 7,8 C 98 % 1009,7 hPa 0,0 l/m 0 min 0 min 24 W/m 10,5 km/h (2 Bft)
10.11.2014 08:36 8,9 C 7,8 C 98 % 1009,7 hPa 0,0 l/m 0 min 0 min 19 W/m 8,4 km/h (2 Bft)
10.11.2014 08:38 8,9 C 7,8 C 98 % 1009,7 hPa 0,0 l/m 0 min 0 min 20 W/m 12,6 km/h (3 Bft)
10.11.2014 08:40 9,0 C 7,8 C 98 % 1009,7 hPa 0,0 l/m 0 min 0 min 17 W/m 12,6 km/h (3 Bft)
10.11.2014 08:42 9,0 C 7,8 C 98 % 1009,7 hPa 0,0 l/m 0 min 0 min 16 W/m 8,4 km/h (2 Bft)
10.11.2014 08:44 9,0 C 7,8 C 98 % 1009,7 hPa 0,0 l/m 0 min 0 min 16 W/m 8,4 km/h (2 Bft)
10.11.2014 08:46 9,0 C 7,8 C 98 % 1009,7 hPa 0,0 l/m 0 min 0 min 16 W/m 10,5 km/h (2 Bft)
10.11.2014 08:48 9,0 C 7,8 C 98 % 1009,8 hPa 0,0 l/m 0 min 0 min 17 W/m 10,5 km/h (2 Bft)
10.11.2014 08:50 9,0 C 7,8 C 98 % 1009,8 hPa 0,0 l/m 0 min 0 min 18 W/m 6,3 km/h (2 Bft)
10.11.2014 08:52 9,0 C 7,2 C 98 % 1009,9 hPa 0,0 l/m 0 min 0 min 18 W/m 4,2 km/h (1 Bft)
10.11.2014 08:54 9,0 C 7,2 C 98 % 1009,8 hPa 0,0 l/m 0 min 0 min 19 W/m 8,4 km/h (2 Bft)
10.11.2014 08:56 9,0 C 7,2 C 98 % 1009,9 hPa 0,0 l/m 0 min 0 min 19 W/m 10,5 km/h (2 Bft)
10.11.2014 08:58 8,9 C 7,2 C 98 % 1009,9 hPa 0,0 l/m 0 min 0 min 19 W/m 6,3 km/h (2 Bft)
10.11.2014 09:00 8,9 C 7,2 C 98 % 1010,0 hPa 0,0 l/m 0 min 0 min 21 W/m 6,3 km/h (2 Bft)
10.11.2014 09:02 8,9 C 7,2 C 98 % 1010,0 hPa 0,0 l/m 0 min 0 min 22 W/m 8,4 km/h (2 Bft)
10.11.2014 09:04 8,9 C 7,2 C 98 % 1009,9 hPa 0,0 l/m 0 min 0 min 37 W/m 8,4 km/h (2 Bft)
10.11.2014 09:06 8,9 C 7,2 C 98 % 1009,9 hPa 0,0 l/m 2 min 0 min 74 W/m 8,4 km/h (2 Bft)
10.11.2014 09:08 8,9 C 7,2 C 98 % 1010,0 hPa 0,0 l/m 2 min 0 min 103 W/m 6,3 km/h (2 Bft)
10.11.2014 09:10 8,9 C 7,2 C 98 % 1010,0 hPa 0,0 l/m 2 min 0 min 135 W/m 12,6 km/h (3 Bft)
10.11.2014 09:12 8,9 C 7,2 C 98 % 1010,0 hPa 0,0 l/m 2 min 0 min 137 W/m 12,6 km/h (3 Bft)
10.11.2014 09:14 8,8 C 7,2 C 98 % 1009,9 hPa 0,0 l/m 2 min 0 min 135 W/m 10,5 km/h (2 Bft)
10.11.2014 09:16 8,8 C 7,8 C 98 % 1009,9 hPa 0,0 l/m 2 min 0 min 144 W/m 10,5 km/h (2 Bft)
10.11.2014 09:18 8,8 C 7,8 C 98 % 1009,9 hPa 0,0 l/m 2 min 0 min 150 W/m 8,4 km/h (2 Bft)
10.11.2014 09:20 8,8 C 7,8 C 98 % 1009,9 hPa 0,0 l/m 2 min 0 min 153 W/m 10,5 km/h (2 Bft)
10.11.2014 09:22 8,9 C 7,8 C 98 % 1009,9 hPa 0,0 l/m 2 min 0 min 157 W/m 10,5 km/h (2 Bft)
10.11.2014 09:24 8,9 C 7,8 C 98 % 1009,8 hPa 0,0 l/m 2 min 0 min 161 W/m 8,4 km/h (2 Bft)
10.11.2014 09:26 8,9 C 7,8 C 98 % 1009,8 hPa 0,0 l/m 2 min 0 min 163 W/m 12,6 km/h (3 Bft)
10.11.2014 09:28 8,9 C 7,8 C 98 % 1009,8 hPa 0,0 l/m 2 min 0 min 166 W/m 10,5 km/h (2 Bft)
10.11.2014 09:30 9,0 C 8,3 C 98 % 1009,8 hPa 0,0 l/m 2 min 0 min 171 W/m 16,7 km/h (3 Bft)
10.11.2014 09:32 9,1 C 8,3 C 98 % 1009,9 hPa 0,0 l/m 2 min 0 min 173 W/m 10,5 km/h (2 Bft)
10.11.2014 09:34 9,1 C 8,3 C 98 % 1009,9 hPa 0,0 l/m 2 min 0 min 175 W/m 12,6 km/h (3 Bft)
10.11.2014 09:36 9,2 C 8,3 C 98 % 1009,9 hPa 0,0 l/m 2 min 0 min 170 W/m 12,6 km/h (3 Bft)
10.11.2014 09:38 9,2 C 8,3 C 98 % 1009,9 hPa 0,0 l/m 2 min 0 min 167 W/m 14,6 km/h (3 Bft)
10.11.2014 09:40 9,3 C 8,3 C 98 % 1010,0 hPa 0,0 l/m 2 min 0 min 154 W/m 18,8 km/h (3 Bft)
10.11.2014 09:42 9,3 C 8,3 C 99 % 1010,0 hPa 0,0 l/m 2 min 0 min 160 W/m 12,6 km/h (3 Bft)
10.11.2014 09:44 9,4 C 8,3 C 99 % 1010,0 hPa 0,0 l/m 2 min 0 min 155 W/m 8,4 km/h (2 Bft)
10.11.2014 09:46 9,4 C 8,3 C 99 % 1010,1 hPa 0,0 l/m 2 min 0 min 193 W/m 12,6 km/h (3 Bft)
10.11.2014 09:48 9,5 C 8,3 C 98 % 1010,1 hPa 0,0 l/m 2 min 0 min 203 W/m 10,5 km/h (2 Bft)
10.11.2014 09:50 9,6 C 8,3 C 98 % 1010,1 hPa 0,0 l/m 2 min 0 min 205 W/m 12,6 km/h (3 Bft)
10.11.2014 09:52 9,6 C 8,3 C 98 % 1010,1 hPa 0,0 l/m 2 min 0 min 207 W/m 10,5 km/h (2 Bft)
10.11.2014 09:54 9,7 C 8,9 C 99 % 1010,2 hPa 0,0 l/m 2 min 0 min 221 W/m 8,4 km/h (2 Bft)
10.11.2014 09:56 9,7 C 8,9 C 99 % 1010,1 hPa 0,0 l/m 2 min 0 min 227 W/m 10,5 km/h (2 Bft)
10.11.2014 09:58 9,7 C 8,9 C 99 % 1010,1 hPa 0,0 l/m 2 min 0 min 229 W/m 10,5 km/h (2 Bft)
10.11.2014 10:00 9,8 C 8,9 C 99 % 1010,1 hPa 0,0 l/m 2 min 0 min 232 W/m 10,5 km/h (2 Bft)
10.11.2014 10:02 9,8 C 8,9 C 99 % 1010,1 hPa 0,0 l/m 2 min 0 min 231 W/m 12,6 km/h (3 Bft)
10.11.2014 10:04 9,9 C 8,9 C 99 % 1010,1 hPa 0,0 l/m 2 min 0 min 229 W/m 14,6 km/h (3 Bft)
10.11.2014 10:06 9,9 C 8,9 C 99 % 1010,1 hPa 0,0 l/m 2 min 0 min 209 W/m 14,6 km/h (3 Bft)
10.11.2014 10:08 10,0 C 8,9 C 99 % 1010,1 hPa 0,0 l/m 2 min 0 min 206 W/m 12,6 km/h (3 Bft)
10.11.2014 10:09 10,1 C 8,9 C 99 % 1010,1 hPa 0,0 l/m 1 min 0 min 227 W/m 14,6 km/h (3 Bft)
10.11.2014 10:12 10,1 C 8,9 C 99 % 1010,1 hPa 0,0 l/m 2 min 0 min 223 W/m 18,8 km/h (3 Bft)
10.11.2014 10:14 10,2 C 8,9 C 99 % 1010,1 hPa 0,0 l/m 2 min 0 min 244 W/m 14,6 km/h (3 Bft)
10.11.2014 10:16 10,2 C 8,9 C 99 % 1010,1 hPa 0,0 l/m 2 min 0 min 234 W/m 12,6 km/h (3 Bft)
10.11.2014 10:18 10,3 C 8,9 C 99 % 1010,1 hPa 0,0 l/m 2 min 0 min 231 W/m 18,8 km/h (3 Bft)
10.11.2014 10:20 10,3 C 8,9 C 99 % 1010,1 hPa 0,0 l/m 2 min 0 min 218 W/m 12,6 km/h (3 Bft)
10.11.2014 10:22 10,4 C 8,9 C 99 % 1010,1 hPa 0,0 l/m 2 min 0 min 215 W/m 16,7 km/h (3 Bft)
10.11.2014 10:24 10,4 C 8,9 C 99 % 1010,1 hPa 0,0 l/m 2 min 0 min 234 W/m 10,5 km/h (2 Bft)
10.11.2014 10:26 10,4 C 8,9 C 99 % 1010,1 hPa 0,0 l/m 2 min 0 min 244 W/m 16,7 km/h (3 Bft)
10.11.2014 10:28 10,4 C 8,9 C 99 % 1010,1 hPa 0,0 l/m 2 min 0 min 254 W/m 12,6 km/h (3 Bft)
10.11.2014 10:30 10,5 C 8,9 C 99 % 1010,2 hPa 0,0 l/m 2 min 0 min 227 W/m 14,6 km/h (3 Bft)
10.11.2014 10:32 10,6 C 8,9 C 99 % 1010,2 hPa 0,0 l/m 2 min 0 min 229 W/m 18,8 km/h (3 Bft)
10.11.2014 10:34 10,6 C 8,9 C 99 % 1010,2 hPa 0,0 l/m 2 min 0 min 200 W/m 12,6 km/h (3 Bft)
10.11.2014 10:36 10,6 C 8,9 C 99 % 1010,2 hPa 0,0 l/m 2 min 0 min 163 W/m 8,4 km/h (2 Bft)
10.11.2014 10:38 10,6 C 8,9 C 99 % 1010,2 hPa 0,0 l/m 2 min 0 min 158 W/m 14,6 km/h (3 Bft)
10.11.2014 10:40 10,7 C 8,9 C 99 % 1010,2 hPa 0,0 l/m 2 min 0 min 156 W/m 10,5 km/h (2 Bft)
10.11.2014 10:42 10,7 C 8,9 C 99 % 1010,2 hPa 0,0 l/m 2 min 0 min 139 W/m 18,8 km/h (3 Bft)
10.11.2014 10:44 10,7 C 8,9 C 99 % 1010,2 hPa 0,0 l/m 2 min 0 min 262 W/m 18,8 km/h (3 Bft)
10.11.2014 10:46 10,7 C 8,9 C 99 % 1010,2 hPa 0,0 l/m 2 min 0 min 274 W/m 14,6 km/h (3 Bft)
10.11.2014 10:48 10,7 C 8,9 C 99 % 1010,2 hPa 0,0 l/m 2 min 0 min 270 W/m 20,9 km/h (4 Bft)
10.11.2014 10:50 10,8 C 9,4 C 99 % 1010,2 hPa 0,0 l/m 2 min 0 min 275 W/m 14,6 km/h (3 Bft)
10.11.2014 10:52 10,8 C 9,4 C 99 % 1010,2 hPa 0,0 l/m 2 min 0 min 254 W/m 10,5 km/h (2 Bft)
10.11.2014 10:54 10,9 C 9,4 C 99 % 1010,2 hPa 0,0 l/m 2 min 0 min 266 W/m 8,4 km/h (2 Bft)
10.11.2014 10:56 10,9 C 9,4 C 99 % 1010,1 hPa 0,0 l/m 2 min 0 min 300 W/m 12,6 km/h (3 Bft)
10.11.2014 10:58 11,0 C 9,4 C 99 % 1010,2 hPa 0,0 l/m 2 min 0 min 305 W/m 8,4 km/h (2 Bft)
10.11.2014 11:00 11,1 C 9,4 C 99 % 1010,2 hPa 0,0 l/m 2 min 0 min 309 W/m 12,6 km/h (3 Bft)
10.11.2014 11:02 11,2 C 9,4 C 99 % 1010,2 hPa 0,0 l/m 2 min 0 min 299 W/m 16,7 km/h (3 Bft)
10.11.2014 11:04 11,2 C 9,4 C 99 % 1010,2 hPa 0,0 l/m 2 min 0 min 302 W/m 23,0 km/h (4 Bft)
10.11.2014 11:06 11,2 C 9,4 C 99 % 1010,2 hPa 0,0 l/m 2 min 0 min 291 W/m 16,7 km/h (3 Bft)
10.11.2014 11:08 11,3 C 9,4 C 99 % 1010,1 hPa 0,0 l/m 2 min 0 min 303 W/m 14,6 km/h (3 Bft)
10.11.2014 11:10 11,3 C 9,4 C 98 % 1010,2 hPa 0,0 l/m 2 min 0 min 312 W/m 16,7 km/h (3 Bft)
10.11.2014 11:12 11,4 C 9,4 C 99 % 1010,2 hPa 0,0 l/m 2 min 0 min 305 W/m 14,6 km/h (3 Bft)
10.11.2014 11:14 11,5 C 10,0 C 99 % 1010,2 hPa 0,0 l/m 2 min 0 min 287 W/m 6,3 km/h (2 Bft)
10.11.2014 11:16 11,6 C 10,0 C 98 % 1010,1 hPa 0,0 l/m 2 min 0 min 345 W/m 14,6 km/h (3 Bft)
10.11.2014 11:18 11,6 C 10,0 C 98 % 1010,2 hPa 0,0 l/m 2 min 0 min 352 W/m 16,7 km/h (3 Bft)
10.11.2014 11:20 11,6 C 10,0 C 98 % 1010,2 hPa 0,0 l/m 2 min 0 min 292 W/m 14,6 km/h (3 Bft)
10.11.2014 11:22 11,6 C 10,0 C 98 % 1010,1 hPa 0,0 l/m 2 min 0 min 217 W/m 14,6 km/h (3 Bft)
10.11.2014 11:24 11,7 C 10,0 C 98 % 1010,1 hPa 0,0 l/m 2 min 0 min 383 W/m 12,6 km/h (3 Bft)
10.11.2014 11:26 11,7 C 10,0 C 98 % 1010,0 hPa 0,0 l/m 2 min 0 min 254 W/m 12,6 km/h (3 Bft)
10.11.2014 11:28 11,8 C 10,0 C 98 % 1010,0 hPa 0,0 l/m 2 min 0 min 172 W/m 18,8 km/h (3 Bft)
10.11.2014 11:30 11,8 C 10,0 C 97 % 1010,0 hPa 0,0 l/m 2 min 0 min 149 W/m 18,8 km/h (3 Bft)
10.11.2014 11:32 11,8 C 10,0 C 97 % 1010,0 hPa 0,0 l/m 2 min 0 min 192 W/m 16,7 km/h (3 Bft)
10.11.2014 11:34 11,8 C 10,0 C 97 % 1010,0 hPa 0,0 l/m 2 min 0 min 187 W/m 14,6 km/h (3 Bft)
10.11.2014 11:36 11,8 C 10,0 C 96 % 1009,9 hPa 0,0 l/m 2 min 0 min 208 W/m 12,6 km/h (3 Bft)
10.11.2014 11:38 11,8 C 10,0 C 96 % 1009,9 hPa 0,0 l/m 2 min 0 min 195 W/m 16,7 km/h (3 Bft)
10.11.2014 11:40 11,9 C 10,6 C 95 % 1010,0 hPa 0,0 l/m 2 min 0 min 256 W/m 12,6 km/h (3 Bft)
10.11.2014 11:42 11,9 C 10,6 C 95 % 1009,9 hPa 0,0 l/m 2 min 0 min 386 W/m 12,6 km/h (3 Bft)
10.11.2014 11:44 12,0 C 10,6 C 94 % 1009,9 hPa 0,0 l/m 2 min 0 min 238 W/m 16,7 km/h (3 Bft)
10.11.2014 11:46 12,1 C 10,6 C 94 % 1009,9 hPa 0,0 l/m 2 min 0 min 212 W/m 12,6 km/h (3 Bft)
10.11.2014 11:48 12,1 C 10,0 C 94 % 1009,9 hPa 0,0 l/m 2 min 0 min 156 W/m 23,0 km/h (4 Bft)
10.11.2014 11:50 12,2 C 10,0 C 93 % 1009,9 hPa 0,0 l/m 2 min 0 min 151 W/m 16,7 km/h (3 Bft)
10.11.2014 11:52 12,2 C 10,0 C 93 % 1009,9 hPa 0,0 l/m 2 min 0 min 151 W/m 12,6 km/h (3 Bft)
10.11.2014 11:54 12,2 C 10,0 C 92 % 1009,9 hPa 0,0 l/m 2 min 0 min 159 W/m 25,1 km/h (4 Bft)
10.11.2014 11:56 12,2 C 10,0 C 91 % 1009,9 hPa 0,0 l/m 2 min 0 min 200 W/m 20,9 km/h (4 Bft)
10.11.2014 11:58 12,2 C 10,0 C 91 % 1009,8 hPa 0,0 l/m 2 min 0 min 404 W/m 14,6 km/h (3 Bft)
10.11.2014 12:00 12,2 C 10,6 C 91 % 1009,8 hPa 0,0 l/m 2 min 0 min 410 W/m 16,7 km/h (3 Bft)
10.11.2014 12:02 12,3 C 10,6 C 90 % 1009,8 hPa 0,0 l/m 2 min 0 min 440 W/m 20,9 km/h (4 Bft)
10.11.2014 12:06 12,5 C 11,1 C 90 % 1009,8 hPa 0,0 l/m 2 min 0 min 448 W/m 18,8 km/h (3 Bft)
10.11.2014 12:08 12,6 C 11,1 C 90 % 1009,7 hPa 0,0 l/m 2 min 0 min 422 W/m 10,5 km/h (2 Bft)
10.11.2014 12:10 12,7 C 11,1 C 89 % 1009,8 hPa 0,0 l/m 2 min 0 min 421 W/m 23,0 km/h (4 Bft)
10.11.2014 12:12 12,8 C 11,1 C 89 % 1009,8 hPa 0,0 l/m 2 min 0 min 418 W/m 23,0 km/h (4 Bft)
10.11.2014 12:14 12,9 C 11,1 C 88 % 1009,7 hPa 0,0 l/m 2 min 0 min 410 W/m 16,7 km/h (3 Bft)
10.11.2014 12:16 13,0 C 11,1 C 88 % 1009,7 hPa 0,0 l/m 2 min 0 min 384 W/m 20,9 km/h (4 Bft)
10.11.2014 12:18 13,1 C 11,1 C 87 % 1009,7 hPa 0,0 l/m 2 min 0 min 377 W/m 23,0 km/h (4 Bft)
10.11.2014 12:20 13,1 C 10,6 C 85 % 1009,7 hPa 0,0 l/m 2 min 0 min 349 W/m 23,0 km/h (4 Bft)
10.11.2014 12:22 13,1 C 10,6 C 85 % 1009,7 hPa 0,0 l/m 2 min 0 min 196 W/m 16,7 km/h (3 Bft)
10.11.2014 12:24 13,1 C 10,6 C 84 % 1009,7 hPa 0,0 l/m 0 min 0 min 80 W/m 20,9 km/h (4 Bft)
10.11.2014 12:26 13,1 C 10,6 C 83 % 1009,7 hPa 0,0 l/m 2 min 0 min 118 W/m 14,6 km/h (3 Bft)
10.11.2014 12:28 13,1 C 10,6 C 83 % 1009,6 hPa 0,0 l/m 2 min 0 min 125 W/m 14,6 km/h (3 Bft)
10.11.2014 12:30 13,1 C 10,6 C 83 % 1009,6 hPa 0,0 l/m 2 min 0 min 130 W/m 16,7 km/h (3 Bft)
10.11.2014 12:32 13,1 C 10,6 C 83 % 1009,6 hPa 0,0 l/m 2 min 0 min 232 W/m 10,5 km/h (2 Bft)
10.11.2014 12:34 13,1 C 10,6 C 83 % 1009,5 hPa 0,0 l/m 2 min 0 min 121 W/m 23,0 km/h (4 Bft)
10.11.2014 12:36 13,1 C 10,6 C 82 % 1009,6 hPa 0,0 l/m 2 min 0 min 382 W/m 18,8 km/h (3 Bft)
10.11.2014 12:38 13,1 C 10,6 C 82 % 1009,6 hPa 0,0 l/m 2 min 0 min 379 W/m 18,8 km/h (3 Bft)
10.11.2014 12:40 13,1 C 10,6 C 83 % 1009,5 hPa 0,0 l/m 2 min 0 min 372 W/m 16,7 km/h (3 Bft)
10.11.2014 12:42 13,1 C 11,1 C 83 % 1009,5 hPa 0,0 l/m 2 min 0 min 369 W/m 23,0 km/h (4 Bft)
10.11.2014 12:44 13,2 C 11,1 C 82 % 1009,5 hPa 0,0 l/m 2 min 0 min 366 W/m 23,0 km/h (4 Bft)
10.11.2014 12:46 13,2 C 11,1 C 82 % 1009,4 hPa 0,0 l/m 2 min 0 min 369 W/m 23,0 km/h (4 Bft)
10.11.2014 12:48 13,3 C 11,1 C 82 % 1009,5 hPa 0,0 l/m 2 min 0 min 367 W/m 14,6 km/h (3 Bft)
10.11.2014 12:50 13,3 C 11,1 C 82 % 1009,4 hPa 0,0 l/m 2 min 0 min 369 W/m 20,9 km/h (4 Bft)
10.11.2014 12:52 13,3 C 11,1 C 81 % 1009,4 hPa 0,0 l/m 2 min 0 min 364 W/m 20,9 km/h (4 Bft)
10.11.2014 12:54 13,4 C 11,1 C 81 % 1009,4 hPa 0,0 l/m 2 min 0 min 357 W/m 16,7 km/h (3 Bft)
10.11.2014 12:56 13,4 C 11,1 C 81 % 1009,5 hPa 0,0 l/m 2 min 0 min 361 W/m 14,6 km/h (3 Bft)
10.11.2014 12:58 13,5 C 11,1 C 81 % 1009,4 hPa 0,0 l/m 2 min 0 min 367 W/m 12,6 km/h (3 Bft)
10.11.2014 13:00 13,6 C 11,7 C 81 % 1009,4 hPa 0,0 l/m 2 min 0 min 352 W/m 14,6 km/h (3 Bft)
10.11.2014 13:02 13,7 C 11,7 C 81 % 1009,4 hPa 0,0 l/m 2 min 0 min 354 W/m 14,6 km/h (3 Bft)
10.11.2014 13:04 13,8 C 11,7 C 81 % 1009,4 hPa 0,0 l/m 2 min 0 min 362 W/m 10,5 km/h (2 Bft)
10.11.2014 13:06 13,8 C 11,7 C 81 % 1009,3 hPa 0,0 l/m 2 min 0 min 315 W/m 12,6 km/h (3 Bft)
10.11.2014 13:08 13,9 C 11,1 C 80 % 1009,3 hPa 0,0 l/m 2 min 0 min 198 W/m 14,6 km/h (3 Bft)
10.11.2014 13:10 13,9 C 11,1 C 80 % 1009,3 hPa 0,0 l/m 2 min 0 min 113 W/m 12,6 km/h (3 Bft)
10.11.2014 13:12 13,9 C 11,1 C 80 % 1009,2 hPa 0,0 l/m 2 min 0 min 144 W/m 14,6 km/h (3 Bft)
10.11.2014 13:14 13,9 C 11,1 C 80 % 1009,2 hPa 0,0 l/m 2 min 0 min 252 W/m 12,6 km/h (3 Bft)
10.11.2014 13:16 13,9 C 11,7 C 80 % 1009,1 hPa 0,0 l/m 2 min 0 min 411 W/m 16,7 km/h (3 Bft)
10.11.2014 13:18 13,9 C 11,7 C 79 % 1009,1 hPa 0,0 l/m 2 min 0 min 405 W/m 14,6 km/h (3 Bft)
10.11.2014 13:20 14,0 C 11,7 C 79 % 1009,1 hPa 0,0 l/m 2 min 0 min 380 W/m 14,6 km/h (3 Bft)
10.11.2014 13:22 14,0 C 11,7 C 79 % 1009,1 hPa 0,0 l/m 2 min 0 min 412 W/m 18,8 km/h (3 Bft)
10.11.2014 13:24 14,0 C 11,7 C 78 % 1009,1 hPa 0,0 l/m 2 min 0 min 413 W/m 20,9 km/h (4 Bft)
10.11.2014 13:26 14,1 C 11,7 C 77 % 1009,1 hPa 0,0 l/m 2 min 0 min 384 W/m 16,7 km/h (3 Bft)
10.11.2014 13:28 14,1 C 11,7 C 77 % 1009,1 hPa 0,0 l/m 2 min 0 min 344 W/m 16,7 km/h (3 Bft)
10.11.2014 13:30 14,2 C 12,2 C 77 % 1009,2 hPa 0,0 l/m 2 min 0 min 359 W/m 16,7 km/h (3 Bft)
10.11.2014 13:32 14,2 C 12,2 C 77 % 1009,1 hPa 0,0 l/m 2 min 0 min 257 W/m 20,9 km/h (4 Bft)
10.11.2014 13:34 14,2 C 12,2 C 76 % 1009,1 hPa 0,0 l/m 2 min 0 min 288 W/m 23,0 km/h (4 Bft)
10.11.2014 13:36 14,2 C 11,7 C 76 % 1009,1 hPa 0,0 l/m 2 min 0 min 165 W/m 18,8 km/h (3 Bft)
10.11.2014 13:38 14,2 C 11,7 C 76 % 1009,1 hPa 0,0 l/m 2 min 0 min 153 W/m 20,9 km/h (4 Bft)
10.11.2014 13:40 14,2 C 11,7 C 76 % 1009,1 hPa 0,0 l/m 2 min 0 min 153 W/m 20,9 km/h (4 Bft)
10.11.2014 13:42 14,2 C 11,7 C 75 % 1009,1 hPa 0,0 l/m 2 min 0 min 166 W/m 20,9 km/h (4 Bft)
10.11.2014 13:44 14,1 C 11,7 C 75 % 1009,1 hPa 0,0 l/m 2 min 0 min 326 W/m 18,8 km/h (3 Bft)
10.11.2014 13:46 14,0 C 11,7 C 76 % 1009,1 hPa 0,0 l/m 2 min 0 min 137 W/m 16,7 km/h (3 Bft)
10.11.2014 13:48 14,0 C 11,7 C 76 % 1009,1 hPa 0,0 l/m 2 min 0 min 149 W/m 20,9 km/h (4 Bft)
10.11.2014 13:50 13,9 C 11,7 C 76 % 1009,1 hPa 0,0 l/m 2 min 0 min 272 W/m 18,8 km/h (3 Bft)
10.11.2014 13:52 13,9 C 11,7 C 76 % 1009,1 hPa 0,0 l/m 2 min 0 min 368 W/m 23,0 km/h (4 Bft)
10.11.2014 13:54 13,9 C 11,7 C 76 % 1009,1 hPa 0,0 l/m 2 min 0 min 369 W/m 10,5 km/h (2 Bft)
10.11.2014 13:56 14,0 C 11,7 C 77 % 1009,1 hPa 0,0 l/m 2 min 0 min 316 W/m 12,6 km/h (3 Bft)
10.11.2014 13:58 14,0 C 11,7 C 77 % 1009,0 hPa 0,0 l/m 2 min 0 min 313 W/m 14,6 km/h (3 Bft)
10.11.2014 14:00 14,0 C 11,7 C 77 % 1009,0 hPa 0,0 l/m 2 min 0 min 239 W/m 14,6 km/h (3 Bft)
10.11.2014 14:02 13,9 C 11,7 C 76 % 1009,0 hPa 0,0 l/m 0 min 0 min 72 W/m 12,6 km/h (3 Bft)
10.11.2014 14:04 13,9 C 11,7 C 76 % 1009,0 hPa 0,0 l/m 0 min 0 min 82 W/m 16,7 km/h (3 Bft)
10.11.2014 14:06 13,8 C 11,1 C 76 % 1009,1 hPa 0,0 l/m 2 min 0 min 117 W/m 23,0 km/h (4 Bft)
10.11.2014 14:08 13,8 C 11,1 C 76 % 1009,0 hPa 0,0 l/m 2 min 0 min 203 W/m 14,6 km/h (3 Bft)
10.11.2014 14:10 13,8 C 11,1 C 76 % 1009,1 hPa 0,0 l/m 2 min 0 min 266 W/m 12,6 km/h (3 Bft)
10.11.2014 14:12 13,8 C 11,1 C 76 % 1009,1 hPa 0,0 l/m 2 min 0 min 260 W/m 14,6 km/h (3 Bft)
10.11.2014 14:14 13,8 C 11,7 C 76 % 1009,1 hPa 0,0 l/m 2 min 0 min 258 W/m 23,0 km/h (4 Bft)
10.11.2014 14:16 13,8 C 11,7 C 75 % 1009,1 hPa 0,0 l/m 2 min 0 min 259 W/m 12,6 km/h (3 Bft)
10.11.2014 14:18 13,8 C 11,7 C 75 % 1009,1 hPa 0,0 l/m 2 min 0 min 267 W/m 20,9 km/h (4 Bft)
10.11.2014 14:20 13,8 C 11,7 C 75 % 1009,1 hPa 0,0 l/m 2 min 0 min 263 W/m 14,6 km/h (3 Bft)
10.11.2014 14:22 13,9 C 11,7 C 74 % 1009,1 hPa 0,0 l/m 2 min 0 min 250 W/m 16,7 km/h (3 Bft)
10.11.2014 14:24 13,9 C 11,7 C 74 % 1009,2 hPa 0,0 l/m 2 min 0 min 240 W/m 23,0 km/h (4 Bft)
10.11.2014 14:26 13,9 C 11,7 C 73 % 1009,1 hPa 0,0 l/m 2 min 0 min 234 W/m 25,1 km/h (4 Bft)
10.11.2014 14:28 13,9 C 11,7 C 72 % 1009,1 hPa 0,0 l/m 2 min 0 min 227 W/m 23,0 km/h (4 Bft)
10.11.2014 14:30 13,9 C 11,7 C 71 % 1009,2 hPa 0,0 l/m 2 min 0 min 223 W/m 18,8 km/h (3 Bft)
10.11.2014 14:32 13,9 C 11,7 C 71 % 1009,2 hPa 0,0 l/m 2 min 0 min 219 W/m 20,9 km/h (4 Bft)
10.11.2014 14:34 13,9 C 11,7 C 70 % 1009,2 hPa 0,0 l/m 2 min 0 min 214 W/m 29,3 km/h (5 Bft)
10.11.2014 14:36 13,9 C 11,7 C 70 % 1009,2 hPa 0,0 l/m 2 min 0 min 207 W/m 25,1 km/h (4 Bft)
10.11.2014 14:38 13,9 C 11,1 C 70 % 1009,1 hPa 0,0 l/m 2 min 0 min 202 W/m 29,3 km/h (5 Bft)
10.11.2014 14:40 13,9 C 11,1 C 70 % 1009,2 hPa 0,0 l/m 2 min 0 min 197 W/m 18,8 km/h (3 Bft)
10.11.2014 14:42 13,9 C 11,1 C 70 % 1009,1 hPa 0,0 l/m 2 min 0 min 193 W/m 25,1 km/h (4 Bft)
10.11.2014 14:44 13,9 C 11,1 C 70 % 1009,1 hPa 0,0 l/m 2 min 0 min 191 W/m 23,0 km/h (4 Bft)
10.11.2014 14:46 13,9 C 11,1 C 70 % 1009,2 hPa 0,0 l/m 2 min 0 min 185 W/m 12,6 km/h (3 Bft)
10.11.2014 14:48 14,0 C 11,1 C 70 % 1009,2 hPa 0,0 l/m 2 min 0 min 180 W/m 20,9 km/h (4 Bft)
10.11.2014 14:50 14,0 C 11,1 C 70 % 1009,2 hPa 0,0 l/m 2 min 0 min 176 W/m 16,7 km/h (3 Bft)
10.11.2014 14:52 14,0 C 11,1 C 70 % 1009,2 hPa 0,0 l/m 2 min 0 min 172 W/m 23,0 km/h (4 Bft)
10.11.2014 14:54 14,0 C 11,1 C 71 % 1009,2 hPa 0,0 l/m 2 min 0 min 168 W/m 14,6 km/h (3 Bft)
10.11.2014 14:56 14,0 C 11,1 C 70 % 1009,2 hPa 0,0 l/m 2 min 0 min 162 W/m 23,0 km/h (4 Bft)
10.11.2014 14:58 13,9 C 11,1 C 71 % 1009,2 hPa 0,0 l/m 2 min 0 min 158 W/m 20,9 km/h (4 Bft)
10.11.2014 15:00 13,9 C 11,1 C 70 % 1009,2 hPa 0,0 l/m 2 min 0 min 154 W/m 23,0 km/h (4 Bft)
10.11.2014 15:02 13,9 C 11,1 C 71 % 1009,1 hPa 0,0 l/m 2 min 0 min 150 W/m 14,6 km/h (3 Bft)
10.11.2014 15:04 13,9 C 11,1 C 70 % 1009,0 hPa 0,0 l/m 2 min 0 min 144 W/m 25,1 km/h (4 Bft)
10.11.2014 15:06 13,8 C 11,1 C 70 % 1009,1 hPa 0,0 l/m 2 min 0 min 140 W/m 23,0 km/h (4 Bft)
10.11.2014 15:08 13,8 C 11,1 C 71 % 1009,2 hPa 0,0 l/m 2 min 0 min 136 W/m 16,7 km/h (3 Bft)
10.11.2014 15:10 13,8 C 11,1 C 71 % 1009,1 hPa 0,0 l/m 2 min 0 min 132 W/m 16,7 km/h (3 Bft)
10.11.2014 15:12 13,7 C 10,6 C 71 % 1009,1 hPa 0,0 l/m 2 min 0 min 126 W/m 35,6 km/h (5 Bft)
10.11.2014 15:14 13,6 C 11,1 C 70 % 1009,1 hPa 0,0 l/m 2 min 0 min 121 W/m 31,4 km/h (5 Bft)
10.11.2014 15:16 13,6 C 11,1 C 69 % 1009,1 hPa 0,0 l/m 2 min 0 min 118 W/m 27,2 km/h (4 Bft)
10.11.2014 15:18 13,5 C 11,1 C 69 % 1009,1 hPa 0,0 l/m 2 min 0 min 113 W/m 14,6 km/h (3 Bft)
10.11.2014 15:20 13,5 C 10,6 C 70 % 1009,2 hPa 0,0 l/m 2 min 0 min 109 W/m 12,6 km/h (3 Bft)
10.11.2014 15:22 13,4 C 10,6 C 70 % 1009,3 hPa 0,0 l/m 2 min 0 min 105 W/m 20,9 km/h (4 Bft)
10.11.2014 15:24 13,4 C 10,6 C 71 % 1009,3 hPa 0,0 l/m 2 min 0 min 101 W/m 14,6 km/h (3 Bft)
10.11.2014 15:26 13,3 C 10,6 C 71 % 1009,2 hPa 0,0 l/m 2 min 0 min 97 W/m 16,7 km/h (3 Bft)
10.11.2014 15:28 13,3 C 10,6 C 71 % 1009,1 hPa 0,0 l/m 2 min 0 min 93 W/m 18,8 km/h (3 Bft)
10.11.2014 15:30 13,2 C 10,6 C 71 % 1009,2 hPa 0,0 l/m 2 min 0 min 90 W/m 20,9 km/h (4 Bft)
10.11.2014 15:32 13,2 C 10,6 C 71 % 1009,2 hPa 0,0 l/m 2 min 0 min 86 W/m 18,8 km/h (3 Bft)
10.11.2014 15:34 13,1 C 10,6 C 71 % 1009,3 hPa 0,0 l/m 2 min 0 min 82 W/m 16,7 km/h (3 Bft)
10.11.2014 15:36 13,1 C 10,6 C 71 % 1009,3 hPa 0,0 l/m 2 min 0 min 78 W/m 20,9 km/h (4 Bft)
10.11.2014 15:38 13,0 C 10,6 C 71 % 1009,3 hPa 0,0 l/m 2 min 0 min 74 W/m 23,0 km/h (4 Bft)
10.11.2014 15:40 13,0 C 10,6 C 72 % 1009,3 hPa 0,0 l/m 2 min 0 min 70 W/m 10,5 km/h (2 Bft)
10.11.2014 15:42 12,9 C 10,6 C 72 % 1009,3 hPa 0,0 l/m 2 min 0 min 66 W/m 12,6 km/h (3 Bft)
10.11.2014 15:44 12,9 C 10,6 C 72 % 1009,3 hPa 0,0 l/m 2 min 0 min 62 W/m 16,7 km/h (3 Bft)
10.11.2014 15:46 12,9 C 10,6 C 72 % 1009,3 hPa 0,0 l/m 2 min 0 min 57 W/m 12,6 km/h (3 Bft)
10.11.2014 15:48 12,8 C 10,0 C 72 % 1009,3 hPa 0,0 l/m 2 min 0 min 55 W/m 16,7 km/h (3 Bft)
10.11.2014 15:50 12,8 C 10,0 C 72 % 1009,3 hPa 0,0 l/m 2 min 0 min 51 W/m 20,9 km/h (4 Bft)
10.11.2014 15:52 12,7 C 10,6 C 71 % 1009,3 hPa 0,0 l/m 2 min 0 min 48 W/m 20,9 km/h (4 Bft)
10.11.2014 15:54 12,7 C 10,6 C 71 % 1009,3 hPa 0,0 l/m 2 min 0 min 44 W/m 16,7 km/h (3 Bft)
10.11.2014 15:56 12,6 C 10,6 C 71 % 1009,3 hPa 0,0 l/m 2 min 0 min 41 W/m 16,7 km/h (3 Bft)
10.11.2014 15:58 12,6 C 10,0 C 71 % 1009,3 hPa 0,0 l/m 2 min 0 min 38 W/m 23,0 km/h (4 Bft)
10.11.2014 16:00 12,6 C 10,0 C 71 % 1009,4 hPa 0,0 l/m 2 min 0 min 35 W/m 20,9 km/h (4 Bft)
10.11.2014 16:02 12,6 C 10,0 C 71 % 1009,3 hPa 0,0 l/m 2 min 0 min 33 W/m 14,6 km/h (3 Bft)
10.11.2014 16:04 12,5 C 10,0 C 71 % 1009,3 hPa 0,0 l/m 0 min 0 min 31 W/m 14,6 km/h (3 Bft)
10.11.2014 16:06 12,5 C 10,0 C 71 % 1009,3 hPa 0,0 l/m 2 min 0 min 30 W/m 12,6 km/h (3 Bft)
10.11.2014 16:08 12,4 C 10,0 C 72 % 1009,3 hPa 0,0 l/m 0 min 0 min 28 W/m 10,5 km/h (2 Bft)
10.11.2014 16:10 12,4 C 10,0 C 72 % 1009,4 hPa 0,0 l/m 0 min 0 min 26 W/m 10,5 km/h (2 Bft)
10.11.2014 16:12 12,4 C 10,0 C 72 % 1009,5 hPa 0,0 l/m 2 min 0 min 26 W/m 23,0 km/h (4 Bft)
10.11.2014 16:14 12,3 C 10,0 C 72 % 1009,5 hPa 0,0 l/m 2 min 0 min 26 W/m 20,9 km/h (4 Bft)
10.11.2014 16:16 12,3 C 10,0 C 72 % 1009,5 hPa 0,0 l/m 2 min 0 min 25 W/m 12,6 km/h (3 Bft)
10.11.2014 16:18 12,3 C 10,0 C 72 % 1009,5 hPa 0,0 l/m 2 min 0 min 24 W/m 16,7 km/h (3 Bft)
10.11.2014 16:20 12,3 C 10,0 C 72 % 1009,5 hPa 0,0 l/m 2 min 0 min 23 W/m 12,6 km/h (3 Bft)
10.11.2014 16:22 12,2 C 9,4 C 72 % 1009,5 hPa 0,0 l/m 2 min 0 min 21 W/m 12,6 km/h (3 Bft)
10.11.2014 16:24 12,2 C 9,4 C 72 % 1009,6 hPa 0,0 l/m 2 min 0 min 21 W/m 10,5 km/h (2 Bft)
10.11.2014 16:26 12,2 C 9,4 C 72 % 1009,6 hPa 0,0 l/m 2 min 0 min 19 W/m 8,4 km/h (2 Bft)
10.11.2014 16:28 12,1 C 9,4 C 73 % 1009,5 hPa 0,0 l/m 2 min 0 min 19 W/m 6,3 km/h (2 Bft)
10.11.2014 16:30 12,1 C 8,9 C 73 % 1009,4 hPa 0,0 l/m 2 min 0 min 18 W/m 6,3 km/h (2 Bft)
10.11.2014 16:32 12,1 C 8,9 C 73 % 1009,5 hPa 0,0 l/m 2 min 0 min 17 W/m 8,4 km/h (2 Bft)
10.11.2014 16:34 12,1 C 8,9 C 73 % 1009,6 hPa 0,0 l/m 2 min 0 min 16 W/m 4,2 km/h (1 Bft)
10.11.2014 16:36 12,0 C 8,9 C 73 % 1009,5 hPa 0,0 l/m 2 min 0 min 15 W/m 10,5 km/h (2 Bft)
10.11.2014 16:38 12,0 C 8,3 C 73 % 1009,5 hPa 0,0 l/m 0 min 0 min 12 W/m 6,3 km/h (2 Bft)
10.11.2014 16:40 11,9 C 8,3 C 74 % 1009,5 hPa 0,0 l/m 0 min 0 min 12 W/m 8,4 km/h (2 Bft)
10.11.2014 16:42 11,9 C 8,3 C 74 % 1009,5 hPa 0,0 l/m 0 min 0 min 11 W/m 6,3 km/h (2 Bft)
10.11.2014 16:44 11,9 C 7,8 C 74 % 1009,3 hPa 0,0 l/m 0 min 0 min 11 W/m 8,4 km/h (2 Bft)
10.11.2014 16:46 11,8 C 7,8 C 74 % 1009,4 hPa 0,0 l/m 0 min 0 min 9 W/m 10,5 km/h (2 Bft)
10.11.2014 16:48 11,8 C 7,8 C 74 % 1009,4 hPa 0,0 l/m 0 min 0 min 8 W/m 8,4 km/h (2 Bft)
10.11.2014 16:50 11,8 C 7,8 C 74 % 1009,5 hPa 0,0 l/m 0 min 0 min 7 W/m 8,4 km/h (2 Bft)
10.11.2014 16:52 11,7 C 7,8 C 75 % 1009,5 hPa 0,0 l/m 0 min 0 min 6 W/m 8,4 km/h (2 Bft)
10.11.2014 16:54 11,7 C 7,8 C 75 % 1009,4 hPa 0,0 l/m 0 min 0 min 5 W/m 8,4 km/h (2 Bft)
10.11.2014 16:56 11,6 C 7,8 C 75 % 1009,4 hPa 0,0 l/m 0 min 0 min 5 W/m 8,4 km/h (2 Bft)
10.11.2014 16:58 11,6 C 7,8 C 75 % 1009,5 hPa 0,0 l/m 0 min 0 min 0 W/m 6,3 km/h (2 Bft)
10.11.2014 17:00 11,5 C 7,8 C 75 % 1009,5 hPa 0,0 l/m 0 min 0 min 0 W/m 8,4 km/h (2 Bft)
10.11.2014 17:02 11,4 C 7,8 C 76 % 1009,5 hPa 0,0 l/m 0 min 0 min 0 W/m 6,3 km/h (2 Bft)
10.11.2014 17:04 11,4 C 7,2 C 76 % 1009,5 hPa 0,0 l/m 0 min 0 min 0 W/m 4,2 km/h (1 Bft)
10.11.2014 17:06 11,3 C 7,2 C 76 % 1009,6 hPa 0,0 l/m 0 min 0 min 0 W/m 6,3 km/h (2 Bft)
10.11.2014 17:08 11,3 C 7,2 C 76 % 1009,6 hPa 0,0 l/m 0 min 0 min 0 W/m 6,3 km/h (2 Bft)
10.11.2014 17:10 11,2 C 7,2 C 76 % 1009,7 hPa 0,0 l/m 0 min 0 min 0 W/m 10,5 km/h (2 Bft)
10.11.2014 17:12 11,2 C 7,2 C 76 % 1009,7 hPa 0,0 l/m 0 min 0 min 0 W/m 6,3 km/h (2 Bft)
10.11.2014 17:14 11,2 C 7,2 C 77 % 1009,6 hPa 0,0 l/m 0 min 0 min 0 W/m 10,5 km/h (2 Bft)
10.11.2014 17:16 11,1 C 7,2 C 77 % 1009,6 hPa 0,0 l/m 0 min 0 min 0 W/m 10,5 km/h (2 Bft)
10.11.2014 17:18 11,0 C 7,2 C 77 % 1009,7 hPa 0,0 l/m 0 min 0 min 0 W/m 8,4 km/h (2 Bft)
10.11.2014 17:20 10,9 C 7,2 C 77 % 1009,7 hPa 0,0 l/m 0 min 0 min 0 W/m 4,2 km/h (1 Bft)
10.11.2014 17:22 10,9 C 7,2 C 77 % 1009,7 hPa 0,0 l/m 0 min 0 min 0 W/m 8,4 km/h (2 Bft)
10.11.2014 17:24 10,9 C 7,2 C 77 % 1009,7 hPa 0,0 l/m 0 min 0 min 0 W/m 8,4 km/h (2 Bft)
10.11.2014 17:26 10,8 C 7,2 C 78 % 1009,7 hPa 0,0 l/m 0 min 0 min 0 W/m 4,2 km/h (1 Bft)
10.11.2014 17:28 10,8 C 7,2 C 77 % 1009,7 hPa 0,0 l/m 0 min 0 min 0 W/m 6,3 km/h (2 Bft)
10.11.2014 17:30 10,7 C 6,7 C 78 % 1009,8 hPa 0,0 l/m 0 min 0 min 0 W/m 8,4 km/h (2 Bft)
10.11.2014 17:32 10,7 C 6,7 C 78 % 1009,8 hPa 0,0 l/m 0 min 0 min 0 W/m 6,3 km/h (2 Bft)
10.11.2014 17:34 10,7 C 6,7 C 78 % 1009,9 hPa 0,0 l/m 0 min 0 min 0 W/m 6,3 km/h (2 Bft)
10.11.2014 17:36 10,6 C 6,7 C 78 % 1009,9 hPa 0,0 l/m 0 min 0 min 0 W/m 4,2 km/h (1 Bft)
10.11.2014 17:38 10,6 C 6,7 C 78 % 1009,9 hPa 0,0 l/m 0 min 0 min 0 W/m 4,2 km/h (1 Bft)
10.11.2014 17:40 10,5 C 6,7 C 78 % 1009,9 hPa 0,0 l/m 0 min 0 min 0 W/m 4,2 km/h (1 Bft)
10.11.2014 17:42 10,4 C 6,7 C 78 % 1009,9 hPa 0,0 l/m 0 min 0 min 0 W/m 4,2 km/h (1 Bft)
10.11.2014 17:44 10,4 C 6,1 C 79 % 1009,8 hPa 0,0 l/m 0 min 0 min 0 W/m 6,3 km/h (2 Bft)
10.11.2014 17:46 10,3 C 6,1 C 79 % 1009,9 hPa 0,0 l/m 0 min 0 min 0 W/m 4,2 km/h (1 Bft)
10.11.2014 17:48 10,3 C 6,1 C 79 % 1009,9 hPa 0,0 l/m 0 min 0 min 0 W/m 6,3 km/h (2 Bft)
10.11.2014 17:50 10,2 C 6,1 C 79 % 1009,8 hPa 0,0 l/m 0 min 0 min 0 W/m 6,3 km/h (2 Bft)
10.11.2014 17:52 10,2 C 6,1 C 79 % 1009,8 hPa 0,0 l/m 0 min 0 min 0 W/m 6,3 km/h (2 Bft)
10.11.2014 17:54 10,1 C 6,1 C 79 % 1009,8 hPa 0,0 l/m 0 min 0 min 0 W/m 4,2 km/h (1 Bft)
10.11.2014 17:56 10,0 C 6,1 C 79 % 1009,9 hPa 0,0 l/m 0 min 0 min 0 W/m 4,2 km/h (1 Bft)
10.11.2014 17:58 9,9 C 5,6 C 79 % 1009,8 hPa 0,0 l/m 0 min 0 min 0 W/m 2,1 km/h (1 Bft)
10.11.2014 18:00 9,8 C 5,6 C 79 % 1009,8 hPa 0,0 l/m 0 min 0 min 0 W/m 4,2 km/h (1 Bft)
10.11.2014 18:02 9,8 C 5,6 C 80 % 1009,8 hPa 0,0 l/m 0 min 0 min 0 W/m 4,2 km/h (1 Bft)
10.11.2014 18:06 9,6 C 5,6 C 81 % 1009,8 hPa 0,0 l/m 0 min 0 min 0 W/m 4,2 km/h (1 Bft)
10.11.2014 18:08 9,6 C 5,6 C 81 % 1009,8 hPa 0,0 l/m 0 min 0 min 0 W/m 8,4 km/h (2 Bft)
10.11.2014 18:10 9,5 C 5,6 C 81 % 1009,8 hPa 0,0 l/m 0 min 0 min 0 W/m 8,4 km/h (2 Bft)
10.11.2014 18:12 9,4 C 5,6 C 81 % 1009,8 hPa 0,0 l/m 0 min 0 min 0 W/m 6,3 km/h (2 Bft)
10.11.2014 18:14 9,4 C 5,6 C 82 % 1009,8 hPa 0,0 l/m 0 min 0 min 0 W/m 4,2 km/h (1 Bft)
10.11.2014 18:16 9,3 C 5,6 C 82 % 1009,8 hPa 0,0 l/m 0 min 0 min 0 W/m 6,3 km/h (2 Bft)
10.11.2014 18:18 9,2 C 5,6 C 82 % 1009,8 hPa 0,0 l/m 0 min 0 min 0 W/m 6,3 km/h (2 Bft)
10.11.2014 18:20 9,2 C 5,6 C 82 % 1009,8 hPa 0,0 l/m 0 min 0 min 0 W/m 4,2 km/h (1 Bft)
10.11.2014 18:22 9,1 C 5,6 C 83 % 1009,8 hPa 0,0 l/m 0 min 0 min 0 W/m 6,3 km/h (2 Bft)
10.11.2014 18:24 9,1 C 5,6 C 83 % 1009,8 hPa 0,0 l/m 0 min 0 min 0 W/m 8,4 km/h (2 Bft)
10.11.2014 18:26 9,0 C 5,6 C 83 % 1009,8 hPa 0,0 l/m 0 min 0 min 0 W/m 8,4 km/h (2 Bft)
10.11.2014 18:28 8,9 C 5,6 C 83 % 1009,8 hPa 0,0 l/m 0 min 0 min 0 W/m 6,3 km/h (2 Bft)
10.11.2014 18:30 8,8 C 5,6 C 83 % 1009,8 hPa 0,0 l/m 0 min 0 min 0 W/m 6,3 km/h (2 Bft)
10.11.2014 18:32 8,8 C 5,6 C 84 % 1009,8 hPa 0,0 l/m 0 min 0 min 0 W/m 6,3 km/h (2 Bft)
10.11.2014 18:34 8,8 C 5,6 C 84 % 1009,8 hPa 0,0 l/m 0 min 0 min 0 W/m 6,3 km/h (2 Bft)
10.11.2014 18:36 8,7 C 5,6 C 84 % 1009,8 hPa 0,0 l/m 0 min 0 min 0 W/m 6,3 km/h (2 Bft)
10.11.2014 18:38 8,7 C 5,6 C 85 % 1009,8 hPa 0,0 l/m 0 min 0 min 0 W/m 6,3 km/h (2 Bft)
10.11.2014 18:40 8,6 C 5,6 C 85 % 1009,8 hPa 0,0 l/m 0 min 0 min 0 W/m 6,3 km/h (2 Bft)
10.11.2014 18:42 8,6 C 5,6 C 85 % 1009,8 hPa 0,0 l/m 0 min 0 min 0 W/m 6,3 km/h (2 Bft)
10.11.2014 18:44 8,6 C 5,6 C 85 % 1009,8 hPa 0,0 l/m 0 min 0 min 0 W/m 8,4 km/h (2 Bft)
10.11.2014 18:46 8,5 C 5,6 C 86 % 1009,8 hPa 0,0 l/m 0 min 0 min 0 W/m 6,3 km/h (2 Bft)
10.11.2014 18:48 8,4 C 5,6 C 85 % 1009,8 hPa 0,0 l/m 0 min 0 min 0 W/m 8,4 km/h (2 Bft)
10.11.2014 18:50 8,4 C 5,6 C 86 % 1009,9 hPa 0,0 l/m 0 min 0 min 0 W/m 6,3 km/h (2 Bft)
10.11.2014 18:52 8,4 C 5,0 C 86 % 1009,9 hPa 0,0 l/m 0 min 0 min 0 W/m 6,3 km/h (2 Bft)
10.11.2014 18:54 8,3 C 5,0 C 86 % 1009,9 hPa 0,0 l/m 0 min 0 min 0 W/m 6,3 km/h (2 Bft)
10.11.2014 18:56 8,3 C 5,0 C 86 % 1009,8 hPa 0,0 l/m 0 min 0 min 0 W/m 8,4 km/h (2 Bft)
10.11.2014 18:58 8,3 C 5,0 C 86 % 1009,9 hPa 0,0 l/m 0 min 0 min 0 W/m 6,3 km/h (2 Bft)
10.11.2014 19:00 8,2 C 5,0 C 86 % 1010,0 hPa 0,0 l/m 0 min 0 min 0 W/m 6,3 km/h (2 Bft)
10.11.2014 19:02 8,2 C 5,0 C 86 % 1010,0 hPa 0,0 l/m 0 min 0 min 0 W/m 6,3 km/h (2 Bft)
10.11.2014 19:04 8,2 C 5,0 C 86 % 1010,0 hPa 0,0 l/m 0 min 0 min 0 W/m 6,3 km/h (2 Bft)
10.11.2014 19:06 8,1 C 5,0 C 86 % 1010,0 hPa 0,0 l/m 0 min 0 min 0 W/m 6,3 km/h (2 Bft)
10.11.2014 19:08 8,1 C 5,0 C 87 % 1010,0 hPa 0,0 l/m 0 min 0 min 0 W/m 8,4 km/h (2 Bft)
10.11.2014 19:10 8,1 C 5,0 C 87 % 1010,0 hPa 0,0 l/m 0 min 0 min 0 W/m 6,3 km/h (2 Bft)
10.11.2014 19:12 8,0 C 5,0 C 87 % 1010,0 hPa 0,0 l/m 0 min 0 min 0 W/m 4,2 km/h (1 Bft)
10.11.2014 19:14 8,0 C 5,0 C 87 % 1010,0 hPa 0,0 l/m 0 min 0 min 0 W/m 6,3 km/h (2 Bft)
10.11.2014 19:16 8,0 C 5,0 C 87 % 1010,0 hPa 0,0 l/m 0 min 0 min 0 W/m 4,2 km/h (1 Bft)
10.11.2014 19:18 7,9 C 5,0 C 87 % 1010,0 hPa 0,0 l/m 0 min 0 min 0 W/m 6,3 km/h (2 Bft)
10.11.2014 19:20 7,9 C 5,0 C 87 % 1010,0 hPa 0,0 l/m 0 min 0 min 0 W/m 4,2 km/h (1 Bft)
10.11.2014 19:22 7,9 C 5,0 C 87 % 1009,9 hPa 0,0 l/m 0 min 0 min 0 W/m 6,3 km/h (2 Bft)
10.11.2014 19:24 7,9 C 5,0 C 87 % 1009,9 hPa 0,0 l/m 0 min 0 min 0 W/m 6,3 km/h (2 Bft)
10.11.2014 19:26 7,8 C 5,0 C 87 % 1009,9 hPa 0,0 l/m 0 min 0 min 0 W/m 6,3 km/h (2 Bft)
10.11.2014 19:28 7,8 C 5,0 C 87 % 1010,0 hPa 0,0 l/m 0 min 0 min 0 W/m 6,3 km/h (2 Bft)
10.11.2014 19:30 7,8 C 5,0 C 87 % 1010,0 hPa 0,0 l/m 0 min 0 min 0 W/m 6,3 km/h (2 Bft)
10.11.2014 19:32 7,8 C 5,0 C 88 % 1010,0 hPa 0,0 l/m 0 min 0 min 0 W/m 6,3 km/h (2 Bft)
10.11.2014 19:34 7,7 C 5,0 C 88 % 1010,0 hPa 0,0 l/m 0 min 0 min 0 W/m 10,5 km/h (2 Bft)
10.11.2014 19:36 7,7 C 5,0 C 87 % 1009,9 hPa 0,0 l/m 0 min 0 min 0 W/m 8,4 km/h (2 Bft)
10.11.2014 19:38 7,7 C 5,0 C 87 % 1010,0 hPa 0,0 l/m 0 min 0 min 0 W/m 8,4 km/h (2 Bft)
10.11.2014 19:40 7,7 C 5,0 C 88 % 1010,0 hPa 0,0 l/m 0 min 0 min 0 W/m 8,4 km/h (2 Bft)
10.11.2014 19:42 7,6 C 5,0 C 88 % 1010,0 hPa 0,0 l/m 0 min 0 min 0 W/m 10,5 km/h (2 Bft)
10.11.2014 19:44 7,6 C 5,0 C 88 % 1010,0 hPa 0,0 l/m 0 min 0 min 0 W/m 10,5 km/h (2 Bft)
10.11.2014 19:46 7,6 C 5,0 C 88 % 1010,0 hPa 0,0 l/m 0 min 0 min 0 W/m 10,5 km/h (2 Bft)
10.11.2014 19:48 7,6 C 5,0 C 88 % 1010,0 hPa 0,0 l/m 0 min 0 min 0 W/m 10,5 km/h (2 Bft)
10.11.2014 19:50 7,5 C 5,0 C 88 % 1010,0 hPa 0,0 l/m 0 min 0 min 0 W/m 10,5 km/h (2 Bft)
10.11.2014 19:52 7,5 C 5,0 C 88 % 1010,0 hPa 0,0 l/m 0 min 0 min 0 W/m 10,5 km/h (2 Bft)
10.11.2014 19:54 7,4 C 5,0 C 88 % 1010,0 hPa 0,0 l/m 0 min 0 min 0 W/m 8,4 km/h (2 Bft)
10.11.2014 19:56 7,4 C 5,0 C 88 % 1010,0 hPa 0,0 l/m 0 min 0 min 0 W/m 8,4 km/h (2 Bft)
10.11.2014 19:58 7,4 C 5,0 C 88 % 1010,0 hPa 0,0 l/m 0 min 0 min 0 W/m 8,4 km/h (2 Bft)
10.11.2014 20:00 7,4 C 5,0 C 88 % 1010,0 hPa 0,0 l/m 0 min 0 min 0 W/m 6,3 km/h (2 Bft)
10.11.2014 20:02 7,4 C 5,0 C 88 % 1010,0 hPa 0,0 l/m 0 min 0 min 0 W/m 6,3 km/h (2 Bft)
10.11.2014 20:04 7,4 C 5,0 C 88 % 1010,0 hPa 0,0 l/m 0 min 0 min 0 W/m 6,3 km/h (2 Bft)
10.11.2014 20:06 7,4 C 5,0 C 88 % 1010,0 hPa 0,0 l/m 0 min 0 min 0 W/m 6,3 km/h (2 Bft)
10.11.2014 20:08 7,3 C 5,0 C 89 % 1010,0 hPa 0,0 l/m 0 min 0 min 0 W/m 6,3 km/h (2 Bft)
10.11.2014 20:10 7,3 C 5,0 C 89 % 1010,0 hPa 0,0 l/m 0 min 0 min 0 W/m 10,5 km/h (2 Bft)
10.11.2014 20:12 7,3 C 5,0 C 89 % 1010,0 hPa 0,0 l/m 0 min 0 min 0 W/m 10,5 km/h (2 Bft)
10.11.2014 20:14 7,3 C 5,0 C 89 % 1010,0 hPa 0,0 l/m 0 min 0 min 0 W/m 6,3 km/h (2 Bft)
10.11.2014 20:16 7,3 C 5,0 C 89 % 1009,9 hPa 0,0 l/m 0 min 0 min 0 W/m 8,4 km/h (2 Bft)
10.11.2014 20:18 7,3 C 5,0 C 89 % 1010,0 hPa 0,0 l/m 0 min 0 min 0 W/m 8,4 km/h (2 Bft)
10.11.2014 20:20 7,3 C 5,0 C 89 % 1010,0 hPa 0,0 l/m 0 min 0 min 0 W/m 8,4 km/h (2 Bft)
10.11.2014 20:22 7,2 C 5,0 C 89 % 1010,0 hPa 0,0 l/m 0 min 0 min 0 W/m 8,4 km/h (2 Bft)
10.11.2014 20:24 7,2 C 5,0 C 89 % 1010,0 hPa 0,0 l/m 0 min 0 min 0 W/m 6,3 km/h (2 Bft)
10.11.2014 20:26 7,2 C 5,0 C 89 % 1010,0 hPa 0,0 l/m 0 min 0 min 0 W/m 8,4 km/h (2 Bft)
10.11.2014 20:28 7,2 C 5,0 C 89 % 1010,0 hPa 0,0 l/m 0 min 0 min 0 W/m 6,3 km/h (2 Bft)
10.11.2014 20:30 7,2 C 5,0 C 89 % 1010,0 hPa 0,0 l/m 0 min 0 min 0 W/m 6,3 km/h (2 Bft)
10.11.2014 20:32 7,2 C 5,0 C 89 % 1010,1 hPa 0,0 l/m 0 min 0 min 0 W/m 6,3 km/h (2 Bft)
10.11.2014 20:34 7,2 C 5,0 C 89 % 1010,1 hPa 0,0 l/m 0 min 0 min 0 W/m 4,2 km/h (1 Bft)
10.11.2014 20:36 7,2 C 5,0 C 89 % 1010,2 hPa 0,0 l/m 0 min 0 min 0 W/m 6,3 km/h (2 Bft)
10.11.2014 20:38 7,1 C 4,4 C 89 % 1010,1 hPa 0,0 l/m 0 min 0 min 0 W/m 4,2 km/h (1 Bft)
10.11.2014 20:40 7,1 C 4,4 C 89 % 1010,1 hPa 0,0 l/m 0 min 0 min 0 W/m 8,4 km/h (2 Bft)
10.11.2014 20:42 7,1 C 4,4 C 89 % 1010,1 hPa 0,0 l/m 0 min 0 min 0 W/m 6,3 km/h (2 Bft)
10.11.2014 20:44 7,1 C 4,4 C 89 % 1010,1 hPa 0,0 l/m 0 min 0 min 0 W/m 6,3 km/h (2 Bft)
10.11.2014 20:46 7,1 C 4,4 C 89 % 1010,1 hPa 0,0 l/m 0 min 0 min 0 W/m 6,3 km/h (2 Bft)
10.11.2014 20:48 7,1 C 5,0 C 89 % 1010,1 hPa 0,0 l/m 0 min 0 min 0 W/m 4,2 km/h (1 Bft)
10.11.2014 20:50 7,1 C 5,0 C 90 % 1010,1 hPa 0,0 l/m 0 min 0 min 0 W/m 6,3 km/h (2 Bft)
10.11.2014 20:52 7,1 C 4,4 C 90 % 1010,1 hPa 0,0 l/m 0 min 0 min 0 W/m 6,3 km/h (2 Bft)
10.11.2014 20:54 7,1 C 4,4 C 90 % 1010,1 hPa 0,0 l/m 0 min 0 min 0 W/m 8,4 km/h (2 Bft)
10.11.2014 20:56 7,1 C 4,4 C 90 % 1010,1 hPa 0,0 l/m 0 min 0 min 0 W/m 6,3 km/h (2 Bft)
10.11.2014 20:58 7,1 C 4,4 C 90 % 1010,1 hPa 0,0 l/m 0 min 0 min 0 W/m 10,5 km/h (2 Bft)
10.11.2014 21:00 7,1 C 4,4 C 90 % 1010,2 hPa 0,0 l/m 0 min 0 min 0 W/m 6,3 km/h (2 Bft)
10.11.2014 21:02 7,1 C 4,4 C 90 % 1010,1 hPa 0,0 l/m 0 min 0 min 0 W/m 6,3 km/h (2 Bft)
10.11.2014 21:04 7,0 C 5,0 C 90 % 1010,2 hPa 0,0 l/m 0 min 0 min 0 W/m 6,3 km/h (2 Bft)
10.11.2014 21:06 7,0 C 5,0 C 90 % 1010,2 hPa 0,0 l/m 0 min 0 min 0 W/m 6,3 km/h (2 Bft)
10.11.2014 21:08 7,0 C 5,0 C 90 % 1010,1 hPa 0,0 l/m 0 min 0 min 0 W/m 6,3 km/h (2 Bft)
10.11.2014 21:10 7,0 C 5,0 C 90 % 1010,1 hPa 0,0 l/m 0 min 0 min 0 W/m 8,4 km/h (2 Bft)
10.11.2014 21:12 7,0 C 5,0 C 91 % 1010,1 hPa 0,0 l/m 0 min 0 min 0 W/m 8,4 km/h (2 Bft)
10.11.2014 21:14 7,0 C 5,0 C 91 % 1010,1 hPa 0,0 l/m 0 min 0 min 0 W/m 10,5 km/h (2 Bft)
10.11.2014 21:16 7,0 C 5,0 C 91 % 1010,1 hPa 0,0 l/m 0 min 0 min 0 W/m 10,5 km/h (2 Bft)
10.11.2014 21:18 7,0 C 5,0 C 91 % 1010,1 hPa 0,0 l/m 0 min 0 min 0 W/m 8,4 km/h (2 Bft)
10.11.2014 21:20 7,0 C 5,0 C 91 % 1010,0 hPa 0,0 l/m 0 min 0 min 0 W/m 14,6 km/h (3 Bft)
10.11.2014 21:22 7,0 C 5,0 C 91 % 1010,1 hPa 0,0 l/m 0 min 0 min 0 W/m 8,4 km/h (2 Bft)
10.11.2014 21:24 7,0 C 5,0 C 91 % 1010,1 hPa 0,0 l/m 0 min 0 min 0 W/m 12,6 km/h (3 Bft)
10.11.2014 21:26 7,1 C 5,0 C 91 % 1010,1 hPa 0,0 l/m 0 min 0 min 0 W/m 16,7 km/h (3 Bft)
10.11.2014 21:28 7,1 C 5,6 C 91 % 1010,1 hPa 0,0 l/m 0 min 0 min 0 W/m 8,4 km/h (2 Bft)
10.11.2014 21:30 7,1 C 5,6 C 92 % 1010,0 hPa 0,0 l/m 0 min 0 min 0 W/m 8,4 km/h (2 Bft)
10.11.2014 21:32 7,1 C 5,6 C 92 % 1010,0 hPa 0,0 l/m 0 min 0 min 0 W/m 8,4 km/h (2 Bft)
10.11.2014 21:34 7,1 C 5,6 C 92 % 1010,0 hPa 0,0 l/m 0 min 0 min 0 W/m 6,3 km/h (2 Bft)
10.11.2014 21:36 7,1 C 5,6 C 92 % 1010,0 hPa 0,0 l/m 0 min 0 min 0 W/m 6,3 km/h (2 Bft)
10.11.2014 21:38 7,1 C 5,6 C 92 % 1010,0 hPa 0,0 l/m 0 min 0 min 0 W/m 8,4 km/h (2 Bft)
10.11.2014 21:40 7,1 C 5,0 C 92 % 1010,0 hPa 0,0 l/m 0 min 0 min 0 W/m 6,3 km/h (2 Bft)
10.11.2014 21:42 7,1 C 5,0 C 92 % 1010,1 hPa 0,0 l/m 0 min 0 min 0 W/m 6,3 km/h (2 Bft)
10.11.2014 21:44 7,1 C 5,0 C 92 % 1010,0 hPa 0,0 l/m 0 min 0 min 0 W/m 6,3 km/h (2 Bft)
10.11.2014 21:46 7,1 C 5,0 C 92 % 1010,0 hPa 0,0 l/m 0 min 0 min 0 W/m 6,3 km/h (2 Bft)
10.11.2014 21:48 7,1 C 5,0 C 92 % 1010,0 hPa 0,0 l/m 0 min 0 min 0 W/m 8,4 km/h (2 Bft)
10.11.2014 21:50 7,1 C 5,0 C 92 % 1010,0 hPa 0,0 l/m 0 min 0 min 0 W/m 6,3 km/h (2 Bft)
10.11.2014 21:52 7,1 C 5,0 C 92 % 1010,0 hPa 0,0 l/m 0 min 0 min 0 W/m 6,3 km/h (2 Bft)
10.11.2014 21:54 7,1 C 5,0 C 92 % 1010,0 hPa 0,0 l/m 0 min 0 min 0 W/m 6,3 km/h (2 Bft)
10.11.2014 21:56 7,1 C 5,0 C 92 % 1010,0 hPa 0,0 l/m 0 min 0 min 0 W/m 6,3 km/h (2 Bft)
10.11.2014 21:58 7,1 C 5,0 C 92 % 1010,0 hPa 0,0 l/m 0 min 0 min 0 W/m 10,5 km/h (2 Bft)
10.11.2014 22:00 7,1 C 5,0 C 92 % 1010,0 hPa 0,0 l/m 0 min 0 min 0 W/m 10,5 km/h (2 Bft)
10.11.2014 22:02 7,1 C 5,0 C 93 % 1010,0 hPa 0,0 l/m 0 min 0 min 0 W/m 8,4 km/h (2 Bft)
10.11.2014 22:04 7,1 C 5,0 C 93 % 1010,0 hPa 0,0 l/m 0 min 0 min 0 W/m 8,4 km/h (2 Bft)
10.11.2014 22:06 7,1 C 5,0 C 93 % 1010,0 hPa 0,0 l/m 0 min 0 min 0 W/m 8,4 km/h (2 Bft)
10.11.2014 22:08 7,1 C 5,0 C 93 % 1010,1 hPa 0,0 l/m 0 min 0 min 0 W/m 10,5 km/h (2 Bft)
10.11.2014 22:10 7,1 C 5,0 C 93 % 1010,0 hPa 0,0 l/m 0 min 0 min 0 W/m 6,3 km/h (2 Bft)
10.11.2014 22:12 7,1 C 5,0 C 93 % 1010,0 hPa 0,0 l/m 0 min 0 min 0 W/m 6,3 km/h (2 Bft)
10.11.2014 22:14 7,1 C 5,0 C 93 % 1010,0 hPa 0,0 l/m 0 min 0 min 0 W/m 8,4 km/h (2 Bft)
10.11.2014 22:16 7,1 C 5,0 C 93 % 1010,1 hPa 0,0 l/m 0 min 0 min 0 W/m 8,4 km/h (2 Bft)
10.11.2014 22:18 7,0 C 5,0 C 93 % 1010,0 hPa 0,0 l/m 0 min 0 min 0 W/m 10,5 km/h (2 Bft)
10.11.2014 22:20 7,0 C 5,0 C 93 % 1010,0 hPa 0,0 l/m 0 min 0 min 0 W/m 8,4 km/h (2 Bft)
10.11.2014 22:22 7,0 C 5,0 C 93 % 1010,0 hPa 0,0 l/m 0 min 0 min 0 W/m 6,3 km/h (2 Bft)
10.11.2014 22:24 7,0 C 5,0 C 93 % 1010,0 hPa 0,0 l/m 0 min 0 min 0 W/m 8,4 km/h (2 Bft)
10.11.2014 22:26 7,0 C 5,0 C 93 % 1010,0 hPa 0,0 l/m 0 min 0 min 0 W/m 6,3 km/h (2 Bft)
10.11.2014 22:28 6,9 C 5,0 C 93 % 1010,0 hPa 0,0 l/m 0 min 0 min 0 W/m 6,3 km/h (2 Bft)
10.11.2014 22:30 6,9 C 5,0 C 93 % 1010,0 hPa 0,0 l/m 0 min 0 min 0 W/m 8,4 km/h (2 Bft)
10.11.2014 22:32 6,9 C 5,0 C 93 % 1010,1 hPa 0,0 l/m 0 min 0 min 0 W/m 8,4 km/h (2 Bft)
10.11.2014 22:34 6,9 C 5,0 C 93 % 1010,1 hPa 0,0 l/m 0 min 0 min 0 W/m 8,4 km/h (2 Bft)
10.11.2014 22:36 6,9 C 5,0 C 93 % 1010,1 hPa 0,0 l/m 0 min 0 min 0 W/m 8,4 km/h (2 Bft)
10.11.2014 22:38 6,9 C 5,0 C 93 % 1010,1 hPa 0,0 l/m 0 min 0 min 0 W/m 8,4 km/h (2 Bft)
10.11.2014 22:40 6,8 C 5,0 C 93 % 1010,0 hPa 0,0 l/m 0 min 0 min 0 W/m 8,4 km/h (2 Bft)
10.11.2014 22:42 6,8 C 5,0 C 93 % 1010,0 hPa 0,0 l/m 0 min 0 min 0 W/m 10,5 km/h (2 Bft)
10.11.2014 22:44 6,8 C 5,0 C 93 % 1010,0 hPa 0,0 l/m 0 min 0 min 0 W/m 8,4 km/h (2 Bft)
10.11.2014 22:46 6,8 C 5,0 C 93 % 1010,0 hPa 0,0 l/m 0 min 0 min 0 W/m 8,4 km/h (2 Bft)
10.11.2014 22:48 6,8 C 5,0 C 93 % 1010,1 hPa 0,0 l/m 0 min 0 min 0 W/m 8,4 km/h (2 Bft)
10.11.2014 22:50 6,8 C 5,0 C 93 % 1010,1 hPa 0,0 l/m 0 min 0 min 0 W/m 8,4 km/h (2 Bft)
10.11.2014 22:52 6,7 C 5,0 C 93 % 1010,1 hPa 0,0 l/m 0 min 0 min 0 W/m 8,4 km/h (2 Bft)
10.11.2014 22:54 6,7 C 5,0 C 93 % 1010,0 hPa 0,0 l/m 0 min 0 min 0 W/m 8,4 km/h (2 Bft)
10.11.2014 22:56 6,7 C 5,0 C 93 % 1010,0 hPa 0,0 l/m 0 min 0 min 0 W/m 8,4 km/h (2 Bft)
10.11.2014 22:58 6,7 C 5,0 C 93 % 1010,0 hPa 0,0 l/m 0 min 0 min 0 W/m 10,5 km/h (2 Bft)
10.11.2014 23:00 6,7 C 5,0 C 93 % 1010,0 hPa 0,0 l/m 0 min 0 min 0 W/m 10,5 km/h (2 Bft)
10.11.2014 23:02 6,7 C 5,0 C 93 % 1010,0 hPa 0,0 l/m 0 min 0 min 0 W/m 6,3 km/h (2 Bft)
10.11.2014 23:04 6,7 C 5,0 C 94 % 1010,1 hPa 0,0 l/m 0 min 0 min 0 W/m 8,4 km/h (2 Bft)
10.11.2014 23:06 6,6 C 5,0 C 94 % 1010,1 hPa 0,0 l/m 0 min 0 min 0 W/m 10,5 km/h (2 Bft)
10.11.2014 23:08 6,6 C 5,0 C 94 % 1010,0 hPa 0,0 l/m 0 min 0 min 0 W/m 10,5 km/h (2 Bft)
10.11.2014 23:10 6,6 C 5,0 C 94 % 1010,1 hPa 0,0 l/m 0 min 0 min 0 W/m 8,4 km/h (2 Bft)
10.11.2014 23:12 6,6 C 5,0 C 94 % 1010,0 hPa 0,0 l/m 0 min 0 min 0 W/m 8,4 km/h (2 Bft)
10.11.2014 23:14 6,6 C 5,0 C 94 % 1010,1 hPa 0,0 l/m 0 min 0 min 0 W/m 6,3 km/h (2 Bft)
10.11.2014 23:16 6,6 C 5,0 C 94 % 1010,0 hPa 0,0 l/m 0 min 0 min 0 W/m 10,5 km/h (2 Bft)
10.11.2014 23:18 6,6 C 5,0 C 94 % 1010,0 hPa 0,0 l/m 0 min 0 min 0 W/m 8,4 km/h (2 Bft)
10.11.2014 23:20 6,6 C 5,0 C 94 % 1010,0 hPa 0,0 l/m 0 min 0 min 0 W/m 8,4 km/h (2 Bft)
10.11.2014 23:22 6,6 C 5,0 C 94 % 1010,0 hPa 0,0 l/m 0 min 0 min 0 W/m 6,3 km/h (2 Bft)
10.11.2014 23:24 6,5 C 5,0 C 94 % 1010,1 hPa 0,0 l/m 0 min 0 min 0 W/m 8,4 km/h (2 Bft)
10.11.2014 23:26 6,5 C 5,0 C 94 % 1010,0 hPa 0,0 l/m 0 min 0 min 0 W/m 10,5 km/h (2 Bft)
10.11.2014 23:28 6,5 C 5,0 C 94 % 1010,0 hPa 0,0 l/m 0 min 0 min 0 W/m 8,4 km/h (2 Bft)
10.11.2014 23:30 6,5 C 5,0 C 94 % 1010,0 hPa 0,0 l/m 0 min 0 min 0 W/m 8,4 km/h (2 Bft)
10.11.2014 23:32 6,4 C 5,0 C 94 % 1010,0 hPa 0,0 l/m 0 min 0 min 0 W/m 6,3 km/h (2 Bft)
10.11.2014 23:34 6,4 C 5,0 C 94 % 1010,0 hPa 0,0 l/m 0 min 0 min 0 W/m 8,4 km/h (2 Bft)
10.11.2014 23:36 6,4 C 5,0 C 94 % 1009,9 hPa 0,0 l/m 0 min 0 min 0 W/m 6,3 km/h (2 Bft)
10.11.2014 23:38 6,4 C 4,4 C 94 % 1009,9 hPa 0,0 l/m 0 min 0 min 0 W/m 6,3 km/h (2 Bft)
10.11.2014 23:40 6,4 C 4,4 C 94 % 1010,0 hPa 0,0 l/m 0 min 0 min 0 W/m 8,4 km/h (2 Bft)
10.11.2014 23:42 6,4 C 5,0 C 94 % 1010,0 hPa 0,0 l/m 0 min 0 min 0 W/m 8,4 km/h (2 Bft)
10.11.2014 23:44 6,4 C 4,4 C 94 % 1009,9 hPa 0,0 l/m 0 min 0 min 0 W/m 12,6 km/h (3 Bft)
10.11.2014 23:46 6,4 C 4,4 C 94 % 1009,9 hPa 0,0 l/m 0 min 0 min 0 W/m 8,4 km/h (2 Bft)
10.11.2014 23:48 6,4 C 4,4 C 94 % 1009,9 hPa 0,0 l/m 0 min 0 min 0 W/m 10,5 km/h (2 Bft)
10.11.2014 23:50 6,4 C 4,4 C 94 % 1009,9 hPa 0,0 l/m 0 min 0 min 0 W/m 8,4 km/h (2 Bft)
10.11.2014 23:52 6,4 C 4,4 C 94 % 1009,9 hPa 0,0 l/m 0 min 0 min 0 W/m 10,5 km/h (2 Bft)
10.11.2014 23:54 6,4 C 4,4 C 94 % 1009,9 hPa 0,0 l/m 0 min 0 min 0 W/m 8,4 km/h (2 Bft)
10.11.2014 23:56 6,3 C 4,4 C 94 % 1009,9 hPa 0,0 l/m 0 min 0 min 0 W/m 8,4 km/h (2 Bft)
10.11.2014 23:58 6,3 C 4,4 C 95 % 1009,9 hPa 0,0 l/m 0 min 0 min 0 W/m 10,5 km/h (2 Bft)
_ Min-Zeit 23:56 20:38 15:16 00:12 - - - - 03:08
Minimum _ 6,3 C 4,4 C 69 % 1008,6 hPa - - - - 0,0 km/h (0 Bft)
_ Max-Zeit 13:30 13:30 09:42 09:54 00:14 09:06 00:00 12:06 15:12
Maximum _ 14,2 C 12,2 C 99 % 1010,2 hPa 0,2 l/m 2 min 2 min 448 W/m 35,6 km/h
SW (5 Bft)
Durchschnitt _ 9,6 C 7,7 C 90 % 1009,5 hPa #2,4 l/m #7:17 h #3:35 h 178 W/m 10,9 km/h (2 Bft)
© 2014 W. Hausmann